
Distance (Route):
Temperature : -0.6°C
Humidity : 0%
Pressure : 0hPa| Receiver | Date | Latitude | Longitude | Direction | Speed | Altitude | Climb | Temperature | Humidity | Pressure | Voltage | Killtimer | Uptime | BKT | XDATA |
|---|---|---|---|---|---|---|---|---|---|---|---|---|---|---|---|
| DB0UT-7 | 2026-09-02 01:50:00 | 48.57992 | 3.40166 | 93° | 51km/h | 3712m | -5.7m/s | -0.6°C | 0% | 0hPa | 4.3V | 00:00:00 | 00:00:00 | 00:00:00 | |
| DB0UT-7 | 2026-09-02 01:49:30 | 48.57970 | 3.39587 | 72° | 60km/h | 3887m | -5.8m/s | -1.4°C | 0% | 0hPa | 4.3V | 00:00:00 | 00:00:00 | 00:00:00 | |
| DB0UT-7 | 2026-09-02 01:48:20 | 48.57917 | 3.38092 | 84° | 64km/h | 4295m | -5.6m/s | -5.3°C | 0% | 0hPa | 4.3V | 00:00:00 | 00:00:00 | 00:00:00 | |
| DB0UT-7 | 2026-09-02 01:47:50 | 48.57889 | 3.37364 | 88° | 71km/h | 4465m | -5.6m/s | -6.9°C | 0% | 0hPa | 4.3V | 00:00:00 | 00:00:00 | 00:00:00 | |
| DB0UT-7 | 2026-09-02 01:47:20 | 48.57872 | 3.36632 | 87° | 66km/h | 4634m | -5.5m/s | -8.0°C | 0% | 0hPa | 4.3V | 00:00:00 | 00:00:00 | 00:00:00 | |
| DB0UT-7 | 2026-09-02 01:46:46 | 48.57814 | 3.35836 | 95° | 60km/h | 4826m | -5.6m/s | -8.5°C | 0% | 0hPa | 4.3V | 00:00:00 | 00:00:00 | 00:00:00 | |
| DB0UT-7 | 2026-09-02 01:46:16 | 48.57852 | 3.35160 | 97° | 55km/h | 4995m | -5.7m/s | -8.4°C | 0% | 0hPa | 4.3V | 00:00:00 | 00:00:00 | 00:00:00 | |
| DB0UT-7 | 2026-09-02 01:45:46 | 48.57880 | 3.34523 | 86° | 57km/h | 5175m | -6.0m/s | -9.3°C | 0% | 0hPa | 4.3V | 00:00:00 | 00:00:00 | 00:00:00 | |
| DB0UT-7 | 2026-09-02 01:45:16 | 48.57901 | 3.33872 | 78° | 53km/h | 5355m | -5.9m/s | -10.2°C | 0% | 0hPa | 4.3V | 00:00:00 | 00:00:00 | 00:00:00 | |
| DB0UT-7 | 2026-09-02 01:44:46 | 48.57899 | 3.33269 | 88° | 49km/h | 5534m | -6.2m/s | -11.4°C | 0% | 0hPa | 4.3V | 00:00:00 | 00:00:00 | 00:00:00 | |
| DB0UT-7 | 2026-09-02 01:44:16 | 48.57922 | 3.32718 | 85° | 51km/h | 5720m | -6.0m/s | -12.7°C | 0% | 0hPa | 4.3V | 00:00:00 | 00:00:00 | 00:00:00 | |
| DB0UT-7 | 2026-09-02 01:43:43 | 48.57926 | 3.32085 | 77° | 58km/h | 5927m | -6.1m/s | -13.7°C | 0% | 0hPa | 4.3V | 00:00:00 | 00:00:00 | 00:00:00 | |
| DB0UT-7 | 2026-09-02 01:43:13 | 48.57950 | 3.31424 | 82° | 60km/h | 6117m | -6.1m/s | -15.1°C | 0% | 0hPa | 4.3V | 00:00:00 | 00:00:00 | 00:00:00 | |
| DB0UT-7 | 2026-09-02 01:42:13 | 48.57913 | 3.29999 | 92° | 62km/h | 6514m | -6.9m/s | -18.5°C | 0% | 0hPa | 4.3V | 00:00:00 | 00:00:00 | 00:00:00 | |
| DB0UT-7 | 2026-09-02 01:41:43 | 48.57875 | 3.29266 | 96° | 62km/h | 6716m | -6.5m/s | -20.0°C | 0% | 0hPa | 4.3V | 00:00:00 | 00:00:00 | 00:00:00 | |
| DB0UT-7 | 2026-09-02 01:41:13 | 48.57791 | 3.28580 | 79° | 66km/h | 6918m | -7.1m/s | -21.6°C | 0% | 0hPa | 4.3V | 00:00:00 | 00:00:00 | 00:00:00 | |
| DB0UT-7 | 2026-09-02 01:40:43 | 48.57704 | 3.27884 | 66° | 66km/h | 7136m | -7.1m/s | -22.8°C | 0% | 0hPa | 4.3V | 00:00:00 | 00:00:00 | 00:00:00 | |
| DB0UT-7 | 2026-09-02 01:40:12 | 48.57594 | 3.27090 | 66° | 75km/h | 7358m | -7.1m/s | -24.2°C | 0% | 0hPa | 4.3V | 00:00:00 | 00:00:00 | 00:00:00 | |
| DB0UT-7 | 2026-09-02 01:39:42 | 48.57471 | 3.26253 | 87° | 75km/h | 7576m | -7.3m/s | -25.1°C | 0% | 0hPa | 4.3V | 00:00:00 | 00:00:00 | 00:00:00 | |
| DB0UT-7 | 2026-09-02 01:39:12 | 48.57398 | 3.25406 | 93° | 78km/h | 7800m | -7.4m/s | -26.6°C | 0% | 0hPa | 4.3V | 00:00:00 | 00:00:00 | 00:00:00 | |
| DB0UT-7 | 2026-09-02 01:38:42 | 48.57457 | 3.24572 | 87° | 75km/h | 8020m | -7.2m/s | -28.6°C | 0% | 0hPa | 4.3V | 00:00:00 | 00:00:00 | 00:00:00 | |
| DB0UT-7 | 2026-09-02 01:38:07 | 48.57555 | 3.23547 | 93° | 84km/h | 8276m | -7.2m/s | -30.5°C | 0% | 0hPa | 4.3V | 00:00:00 | 00:00:00 | 00:00:00 | |
| DB0UT-7 | 2026-09-02 01:37:37 | 48.57708 | 3.22635 | 103° | 80km/h | 8496m | -7.4m/s | -32.6°C | 0% | 0hPa | 4.3V | 00:00:00 | 00:00:00 | 00:00:00 | |
| DB0UT-7 | 2026-09-02 01:37:07 | 48.57874 | 3.21777 | 120° | 75km/h | 8721m | -7.7m/s | -34.5°C | 0% | 0hPa | 4.3V | 00:00:00 | 00:00:00 | 00:00:00 | |
| DB0UT-7 | 2026-09-02 01:36:23 | 48.58162 | 3.20647 | 104° | 68km/h | 9059m | -7.3m/s | -37.4°C | 0% | 0hPa | 4.3V | 00:00:00 | 00:00:00 | 00:00:00 | |
| DB0UT-7 | 2026-09-02 01:35:53 | 48.58293 | 3.19910 | 112° | 66km/h | 9296m | -8.0m/s | -39.1°C | 0% | 0hPa | 4.3V | 00:00:00 | 00:00:00 | 00:00:00 | |
| DB0UT-7 | 2026-09-02 01:35:23 | 48.58463 | 3.19203 | 108° | 71km/h | 9541m | -7.8m/s | -41.3°C | 0% | 0hPa | 4.3V | 00:00:00 | 00:00:00 | 00:00:00 | |
| DB0UT-7 | 2026-09-02 01:34:53 | 48.58627 | 3.18417 | 103° | 68km/h | 9791m | -8.2m/s | -43.6°C | 0% | 0hPa | 4.3V | 00:00:00 | 00:00:00 | 00:00:00 | |
| DB0UT-7 | 2026-09-02 01:34:23 | 48.58718 | 3.17654 | 96° | 69km/h | 10046m | -8.3m/s | -45.9°C | 0% | 0hPa | 4.3V | 00:00:00 | 00:00:00 | 00:00:00 | |
| DB0UT-7 | 2026-09-02 01:33:53 | 48.58825 | 3.16868 | 109° | 71km/h | 10296m | -8.3m/s | -47.9°C | 0% | 0hPa | 4.4V | 00:00:00 | 00:00:00 | 00:00:00 | |
| DB0UT-7 | 2026-09-02 01:33:20 | 48.58988 | 3.16011 | 110° | 71km/h | 10565m | -7.6m/s | -50.3°C | 0% | 0hPa | 4.4V | 00:00:00 | 00:00:00 | 00:00:00 | |
| DB0UT-7 | 2026-09-02 01:32:47 | 48.59172 | 3.15158 | 111° | 73km/h | 10830m | -8.2m/s | -52.7°C | 0% | 0hPa | 4.4V | 00:00:00 | 00:00:00 | 00:00:00 | |
| DB0UT-7 | 2026-09-02 01:32:17 | 48.59403 | 3.14408 | 120° | 84km/h | 11090m | -8.3m/s | -54.1°C | 0% | 0hPa | 4.4V | 00:00:00 | 00:00:00 | 00:00:00 | |
| DB0UT-7 | 2026-09-02 01:31:47 | 48.59816 | 3.13662 | 136° | 100km/h | 11349m | -8.5m/s | -54.5°C | 0% | 0hPa | 4.4V | 00:00:00 | 00:00:00 | 00:00:00 | |
| DB0UT-7 | 2026-09-02 01:31:12 | 48.60430 | 3.12697 | 134° | 110km/h | 11657m | -8.8m/s | -54.6°C | 0% | 0hPa | 4.4V | 00:00:00 | 00:00:00 | 00:00:00 | |
| DB0UT-7 | 2026-09-02 01:30:42 | 48.61068 | 3.11914 | 143° | 97km/h | 11934m | -8.9m/s | -54.5°C | 0% | 0hPa | 4.4V | 00:00:00 | 00:00:00 | 00:00:00 | |
| DB0UT-7 | 2026-09-02 01:29:30 | 48.62273 | 3.09973 | 120° | 89km/h | 12615m | -9.3m/s | -54.4°C | 0% | 0hPa | 4.4V | 00:00:00 | 00:00:00 | 00:00:00 | |
| DB0UT-7 | 2026-09-02 01:29:00 | 48.62635 | 3.09119 | 119° | 97km/h | 12881m | -9.7m/s | -55.4°C | 0% | 0hPa | 4.4V | 00:00:00 | 00:00:00 | 00:00:00 | |
| DB0UT-7 | 2026-09-02 01:27:48 | 48.63557 | 3.06890 | 130° | 73km/h | 13611m | -10.6m/s | -54.8°C | 0% | 0hPa | 4.5V | 00:00:00 | 00:00:00 | 00:00:00 | |
| DB0UT-7 | 2026-09-02 01:27:18 | 48.63822 | 3.06166 | 124° | 78km/h | 13944m | -11.0m/s | -53.1°C | 0% | 0hPa | 4.5V | 00:00:00 | 00:00:00 | 00:00:00 | |
| DB0UT-7 | 2026-09-02 01:26:04 | 48.64212 | 3.04348 | 103° | 77km/h | 14803m | -11.8m/s | -55.3°C | 0% | 0hPa | 4.5V | 00:00:00 | 00:00:00 | 00:00:00 | |
| DB0UT-7 | 2026-09-02 01:25:34 | 48.64362 | 3.03506 | 113° | 58km/h | 15157m | -12.2m/s | -54.8°C | 0% | 0hPa | 4.5V | 00:00:00 | 00:00:00 | 00:00:00 | |
| DB0UT-7 | 2026-09-02 01:24:22 | 48.64709 | 3.01814 | 121° | 44km/h | 16081m | -13.0m/s | -52.8°C | 0% | 0hPa | 4.5V | 00:00:00 | 00:00:00 | 00:00:00 | |
| DB0UT-7 | 2026-09-02 01:23:52 | 48.64774 | 3.01349 | 85° | 44km/h | 16468m | -13.6m/s | -53.2°C | 0% | 0hPa | 4.5V | 00:00:00 | 00:00:00 | 00:00:00 | |
| DB0UT-7 | 2026-09-02 01:22:33 | 48.64832 | 2.99884 | 96° | 29km/h | 17582m | -14.9m/s | -53.3°C | 0% | 0hPa | 4.7V | 00:00:00 | 00:00:00 | 00:00:00 | |
| DB0UT-7 | 2026-09-02 01:20:35 | 48.65028 | 2.98228 | 119° | 13km/h | 19486m | -17.5m/s | -52.2°C | 0% | 0hPa | 4.7V | 00:00:00 | 00:00:00 | 00:00:00 | |
| DO1YAY-16 | 2026-09-02 01:18:27 | 48.65012 | 2.97333 | 182° | 5km/h | 22269m | -22.1m/s | -52.5°C | 0.0% | -1.0hPa | 4.7V | 00:00:00 | 00:00:00 | 00:00:00 | |
| DO1YAY-16 | 2026-09-02 01:16:23 | 48.65070 | 2.97202 | 270° | 11km/h | 25710m | -29.2m/s | -50.4°C | 0.0% | -1.0hPa | 4.7V | 00:00:00 | 00:00:00 | 00:00:00 | |
| DB0UT-7 | 2026-09-02 01:14:07 | 48.64864 | 2.97333 | 88° | 20km/h | 29562m | -40.0m/s | -43.8°C | 0% | 0hPa | 4.7V | 00:00:00 | 00:00:00 | 00:00:00 | |
| DJ2DS-15 | 2026-09-02 01:14:01 | 48.64872 | 2.97229 | 98° | 24km/h | 29939m | -40.2m/s | -42.7°C | 0.0% | -1.0hPa | 4.7V | 00:00:00 | 00:00:00 | 00:00:00 | |
| DJ2DS-15 | 2026-09-02 01:12:42 | 48.64912 | 2.96804 | 58° | 18km/h | 33630m | -75.3m/s | -36.1°C | 0% | 0hPa | 4.7V | 00:00:00 | 00:00:00 | 00:00:00 | |
| DB0UT-7 | 2026-09-02 01:12:33 | 48.64918 | 2.96771 | 326° | 37km/h | 34266m | -60.0m/s | -35.2°C | 0% | 0hPa | 4.7V | 00:00:00 | 00:00:00 | 00:00:00 | |
| DM0DOS-11 | 2026-09-02 01:12:22 | 48.64902 | 2.96678 | 21° | 24km/h | 34579m | 2.7m/s | -34.8°C | 0% | 0hPa | 4.7V | 00:00:00 | 00:00:00 | 00:00:00 | |
| DJ2DS-15 | 2026-09-02 01:12:22 | 48.64918 | 2.96675 | 316° | 35km/h | 34596m | 10.3m/s | -34.5°C | 0% | 0hPa | 4.7V | 00:00:00 | 00:00:00 | 00:00:00 | |
| DM0DOS-11 | 2026-09-02 01:12:04 | 48.64925 | 2.96544 | 150° | 40km/h | 34488m | 2.7m/s | -35.3°C | 0% | 0hPa | 4.7V | 00:00:00 | 00:00:00 | 00:00:00 | |
| DJ2DS-15 | 2026-09-02 01:12:01 | 48.64933 | 2.96534 | 77° | 27km/h | 34479m | 6.2m/s | -35.2°C | 0% | 0hPa | 4.7V | 00:00:00 | 00:00:00 | 00:00:00 | |
| DB0UT-7 | 2026-09-02 01:11:56 | 48.64895 | 2.96512 | 63° | 26km/h | 34452m | 5.1m/s | -35.3°C | 0% | 0hPa | 4.7V | 00:00:00 | 00:00:00 | 00:00:00 | |
| DM0DOS-11 | 2026-09-02 01:11:48 | 48.64890 | 2.96472 | 30° | 24km/h | 34395m | 3.8m/s | -35.8°C | 0% | 0hPa | 4.7V | 00:00:00 | 00:00:00 | 00:00:00 | |
| DJ2DS-15 | 2026-09-02 01:11:40 | 48.64911 | 2.96444 | 4° | 26km/h | 34365m | 5.9m/s | -36.2°C | 0% | 0hPa | 4.7V | 00:00:00 | 00:00:00 | 00:00:00 | |
| DM0DOS-11 | 2026-09-02 01:11:32 | 48.64891 | 2.96436 | 124° | 13km/h | 34308m | 3.8m/s | -37°C | 0% | 0hPa | 4.7V | 00:00:00 | 00:00:00 | 00:00:00 | |
| DB0UT-7 | 2026-09-02 01:11:26 | 48.64868 | 2.96439 | 338° | 31km/h | 34285m | 2.1m/s | -37.0°C | 0% | 0hPa | 4.7V | 00:00:00 | 00:00:00 | 00:00:00 | |
| DJ2DS-15 | 2026-09-02 01:11:19 | 48.64887 | 2.96421 | 99° | 29km/h | 34252m | 4.6m/s | -37.1°C | 0% | 0hPa | 4.7V | 00:00:00 | 00:00:00 | 00:00:00 | |
| DM0DOS-11 | 2026-09-02 01:11:11 | 48.64872 | 2.96420 | 132° | 42km/h | 34196m | 4m/s | -37.3°C | 0% | 0hPa | 4.7V | 00:00:00 | 00:00:00 | 00:00:00 | |
| DJ2DS-15 | 2026-09-02 01:10:58 | 48.64884 | 2.96369 | 106° | 29km/h | 34133m | 4.1m/s | -37.4°C | 0% | 0hPa | 4.7V | 00:00:00 | 00:00:00 | 00:00:00 | |
| DB0UT-7 | 2026-09-02 01:10:53 | 48.64866 | 2.96355 | 347° | 29km/h | 34108m | 3.4m/s | -37.5°C | 0% | 0hPa | 4.7V | 00:00:00 | 00:00:00 | 00:00:00 | |
| DM0DOS-11 | 2026-09-02 01:10:46 | 48.64899 | 2.96280 | 5° | 26km/h | 34050m | 5.7m/s | -37.8°C | 0% | 0hPa | 4.7V | 00:00:00 | 00:00:00 | 00:00:00 | |
| DJ2DS-15 | 2026-09-02 01:10:38 | 48.64908 | 2.96236 | 124° | 29km/h | 34021m | 1.7m/s | -37.8°C | 0% | 0hPa | 4.7V | 00:00:00 | 00:00:00 | 00:00:00 | |
| DB0UT-7 | 2026-09-02 01:10:23 | 48.64877 | 2.96149 | 360° | 27km/h | 33932m | 4.8m/s | -37.8°C | 0% | 0hPa | 4.7V | 00:00:00 | 00:00:00 | 00:00:00 | |
| DM0DOS-11 | 2026-09-02 01:10:19 | 48.64866 | 2.96099 | 11° | 27km/h | 33883m | 8.2m/s | -37.9°C | 0% | 0hPa | 4.7V | 00:00:00 | 00:00:00 | 00:00:00 | |
| DJ2DS-15 | 2026-09-02 01:10:18 | 48.64862 | 2.96125 | 132° | 26km/h | 33904m | 5.9m/s | -37.9°C | 0% | 0hPa | 4.7V | 00:00:00 | 00:00:00 | 00:00:00 | |
| DM0DOS-11 | 2026-09-02 01:10:08 | 48.64840 | 2.96051 | 3° | 26km/h | 33821m | 6.8m/s | -38°C | 0% | 0hPa | 4.7V | 00:00:00 | 00:00:00 | 00:00:00 | |
| DJ2DS-15 | 2026-09-02 01:09:58 | 48.64824 | 2.96032 | 135° | 16km/h | 33793m | 6.7m/s | -38.2°C | 0% | 0hPa | 4.8V | 00:00:00 | 00:00:00 | 00:00:00 | |
| DM0DOS-11 | 2026-09-02 01:09:56 | 48.64828 | 2.96021 | 349° | 26km/h | 33759m | 5.3m/s | -38.4°C | 0% | 0hPa | 4.8V | 00:00:00 | 00:00:00 | 00:00:00 | |
| DB0UT-7 | 2026-09-02 01:09:53 | 48.64834 | 2.96018 | 346° | 18km/h | 33765m | 6.7m/s | -38.3°C | 0% | 0hPa | 4.7V | 00:00:00 | 00:00:00 | 00:00:00 | |
| DM0DOS-11 | 2026-09-02 01:09:44 | 48.64807 | 2.96008 | 349° | 11km/h | 33698m | 4.9m/s | -38.6°C | 0% | 0hPa | 4.7V | 00:00:00 | 00:00:00 | 00:00:00 | |
| DJ2DS-15 | 2026-09-02 01:09:38 | 48.64814 | 2.96001 | 150° | 18km/h | 33679m | 5.0m/s | -38.4°C | 0% | 0hPa | 4.7V | 00:00:00 | 00:00:00 | 00:00:00 | |
| DM0DOS-11 | 2026-09-02 01:09:32 | 48.64801 | 2.95982 | 149° | 24km/h | 33622m | 5m/s | -38.1°C | 0% | 0hPa | 4.8V | 00:00:00 | 00:00:00 | 00:00:00 | |
| DB0UT-7 | 2026-09-02 01:09:22 | 48.64794 | 2.95971 | 5° | 22km/h | 33588m | 4.0m/s | -38.0°C | 0% | 0hPa | 4.8V | 00:00:00 | 00:00:00 | 00:00:00 | |
| DM0DOS-11 | 2026-09-02 01:09:20 | 48.64795 | 2.95941 | 24° | 13km/h | 33547m | 7.5m/s | -37.9°C | 0% | 0hPa | 4.8V | 00:00:00 | 00:00:00 | 00:00:00 | |
| DJ2DS-15 | 2026-09-02 01:09:18 | 48.64790 | 2.95953 | 138° | 22km/h | 33563m | 5.5m/s | -37.9°C | 0% | 0hPa | 4.8V | 00:00:00 | 00:00:00 | 00:00:00 | |
| DM0DOS-11 | 2026-09-02 01:09:09 | 48.64768 | 2.95909 | 0° | 7km/h | 33487m | 7m/s | -37.9°C | 0% | 0hPa | 4.8V | 00:00:00 | 00:00:00 | 00:00:00 | |
| DO1YAY-16 | 2026-09-02 01:09:08 | 48.64762 | 2.95918 | 133° | 22km/h | 33505m | 6.0m/s | -37.9°C | 0.0% | -1.0hPa | 4.8V | 00:00:00 | 00:00:00 | 00:00:00 | |
| DJ2DS-15 | 2026-09-02 01:08:58 | 48.64743 | 2.95877 | 125° | 24km/h | 33446m | 5.7m/s | -38.0°C | 0% | 0hPa | 4.8V | 00:00:00 | 00:00:00 | 00:00:00 | |
| DB0UT-7 | 2026-09-02 01:08:50 | 48.64722 | 2.95850 | 72° | 22km/h | 33399m | 7.2m/s | -38.3°C | 0% | 0hPa | 4.8V | 00:00:00 | 00:00:00 | 00:00:00 | |
| DM0DOS-11 | 2026-09-02 01:08:39 | 48.64696 | 2.95771 | 23° | 16km/h | 33310m | 7.8m/s | -38.6°C | 0% | 0hPa | 4.8V | 00:00:00 | 00:00:00 | 00:00:00 | |
| DM0DOS-11 | 2026-09-02 01:08:24 | 48.64671 | 2.95728 | 133° | 15km/h | 33219m | 7.3m/s | -38.6°C | 0% | 0hPa | 4.8V | 00:00:00 | 00:00:00 | 00:00:00 | |
| DB0UT-7 | 2026-09-02 01:08:20 | 48.64670 | 2.95728 | 134° | 20km/h | 33219m | 7.2m/s | -38.6°C | 0% | 0hPa | 4.7V | 00:00:00 | 00:00:00 | 00:00:00 | |
| DJ2DS-15 | 2026-09-02 01:08:18 | 48.64679 | 2.95720 | 156° | 18km/h | 33209m | 4.1m/s | -38.6°C | 0% | 0hPa | 4.8V | 00:00:00 | 00:00:00 | 00:00:00 | |
| DM0DOS-11 | 2026-09-02 01:08:14 | 48.64667 | 2.95706 | 128° | 24km/h | 33158m | 7.3m/s | -38.7°C | 0% | 0hPa | 4.8V | 00:00:00 | 00:00:00 | 00:00:00 | |
| DM0DOS-11 | 2026-09-02 01:08:04 | 48.64678 | 2.95689 | 134° | 33km/h | 33098m | 6.8m/s | -38.9°C | 0% | 0hPa | 4.8V | 00:00:00 | 00:00:00 | 00:00:00 | |
| DJ2DS-15 | 2026-09-02 01:07:58 | 48.64691 | 2.95673 | 150° | 20km/h | 33089m | 4.5m/s | -38.9°C | 0% | 0hPa | 4.8V | 00:00:00 | 00:00:00 | 00:00:00 | |
| DM0DOS-11 | 2026-09-02 01:07:53 | 48.64707 | 2.95647 | 136° | 38km/h | 33032m | 4.7m/s | -38.8°C | 0% | 0hPa | 4.8V | 00:00:00 | 00:00:00 | 00:00:00 | |
| DB0UT-7 | 2026-09-02 01:07:50 | 48.64700 | 2.95657 | 133° | 29km/h | 33037m | 6.5m/s | -38.8°C | 0% | 0hPa | 4.8V | 00:00:00 | 00:00:00 | 00:00:00 | |
| DM0DOS-11 | 2026-09-02 01:07:43 | 48.64727 | 2.95579 | 119° | 24km/h | 32970m | 4.4m/s | -38.5°C | 0% | 0hPa | 4.8V | 00:00:00 | 00:00:00 | 00:00:00 | |
| DJ2DS-15 | 2026-09-02 01:07:38 | 48.64727 | 2.95579 | 120° | 29km/h | 32971m | 4.4m/s | -38.5°C | 0% | 0hPa | 4.7V | 00:00:00 | 00:00:00 | 00:00:00 | |
| DM0DOS-11 | 2026-09-02 01:07:26 | 48.64697 | 2.95489 | 46° | 22km/h | 32878m | 5.3m/s | -38.1°C | 0% | 0hPa | 4.8V | 00:00:00 | 00:00:00 | 00:00:00 | |
| DB0UT-7 | 2026-09-02 01:07:20 | 48.64697 | 2.95467 | 109° | 37km/h | 32861m | 8.6m/s | -38.0°C | 0% | 0hPa | 4.8V | 00:00:00 | 00:00:00 | 00:00:00 | |
| DJ2DS-15 | 2026-09-02 01:07:18 | 48.64707 | 2.95432 | 112° | 38km/h | 32850m | 4.0m/s | -37.9°C | 0% | 0hPa | 4.8V | 00:00:00 | 00:00:00 | 00:00:00 | |
| DM0DOS-11 | 2026-09-02 01:07:09 | 48.64682 | 2.95288 | 54° | 27km/h | 32773m | 5.7m/s | -38.3°C | 0% | 0hPa | 4.8V | 00:00:00 | 00:00:00 | 00:00:00 | |
| DO1YAY-16 | 2026-09-02 01:07:04 | 48.64671 | 2.95270 | 47° | 37km/h | 32762m | 5.8m/s | -38.3°C | 0.0% | -1.0hPa | 4.7V | 00:00:00 | 00:00:00 | 00:00:00 | |
| DJ2DS-15 | 2026-09-02 01:06:58 | 48.64651 | 2.95191 | 76° | 31km/h | 32735m | 4.6m/s | -38.3°C | 0% | 0hPa | 4.7V | 00:00:00 | 00:00:00 | 00:00:00 | |
| DB0UT-7 | 2026-09-02 01:06:50 | 48.64619 | 2.95109 | 81° | 33km/h | 32687m | 3.8m/s | -38.1°C | 0% | 0hPa | 4.7V | 00:00:00 | 00:00:00 | 00:00:00 | |
| DM0DOS-11 | 2026-09-02 01:06:49 | 48.64595 | 2.95064 | 10° | 18km/h | 32651m | 4.3m/s | -38°C | 0% | 0hPa | 4.8V | 00:00:00 | 00:00:00 | 00:00:00 | |
| DJ2DS-15 | 2026-09-02 01:06:38 | 48.64574 | 2.94988 | 59° | 26km/h | 32618m | 6.3m/s | -38.1°C | 0% | 0hPa | 4.7V | 00:00:00 | 00:00:00 | 00:00:00 | |
| DM0DOS-11 | 2026-09-02 01:06:33 | 48.64545 | 2.94917 | 57° | 35km/h | 32565m | 6.3m/s | -38.5°C | 0% | 0hPa | 4.8V | 00:00:00 | 00:00:00 | 00:00:00 | |
| DM0DOS-11 | 2026-09-02 01:06:21 | 48.64500 | 2.94850 | 13° | 18km/h | 32494m | 4.4m/s | -39°C | 0% | 0hPa | 4.8V | 00:00:00 | 00:00:00 | 00:00:00 | |
| DB0UT-7 | 2026-09-02 01:06:20 | 48.64517 | 2.94858 | 72° | 18km/h | 32517m | 5.5m/s | -38.8°C | 0% | 0hPa | 4.8V | 00:00:00 | 00:00:00 | 00:00:00 | |
| DJ2DS-15 | 2026-09-02 01:06:18 | 48.64511 | 2.94851 | 5° | 18km/h | 32503m | 6.2m/s | -38.9°C | 0% | 0hPa | 4.8V | 00:00:00 | 00:00:00 | 00:00:00 | |
| DM0DOS-11 | 2026-09-02 01:06:09 | 48.64482 | 2.94802 | 98° | 24km/h | 32424m | 6m/s | -39.2°C | 0% | 0hPa | 4.8V | 00:00:00 | 00:00:00 | 00:00:00 | |
| DO1YAY-16 | 2026-09-02 01:06:02 | 48.64487 | 2.94780 | 121° | 7km/h | 32409m | 6.3m/s | -39.3°C | 0.0% | -1.0hPa | 4.8V | 00:00:00 | 00:00:00 | 00:00:00 | |
| DJ2DS-15 | 2026-09-02 01:05:58 | 48.64485 | 2.94787 | 307° | 16km/h | 32391m | 4.5m/s | -39.4°C | 0% | 0hPa | 4.8V | 00:00:00 | 00:00:00 | 00:00:00 | |
| DB0UT-7 | 2026-09-02 01:05:48 | 48.64491 | 2.94754 | 193° | 22km/h | 32337m | 3.9m/s | -39.5°C | 0% | 0hPa | 4.8V | 00:00:00 | 00:00:00 | 00:00:00 | |
| DM0DOS-11 | 2026-09-02 01:05:39 | 48.64509 | 2.94690 | 135° | 16km/h | 32279m | 5.8m/s | -39.5°C | 0% | 0hPa | 4.8V | 00:00:00 | 00:00:00 | 00:00:00 | |
| DJ2DS-15 | 2026-09-02 01:05:38 | 48.64509 | 2.94690 | 136° | 22km/h | 32279m | 5.7m/s | -39.5°C | 0% | 0hPa | 4.8V | 00:00:00 | 00:00:00 | 00:00:00 | |
| DM0DOS-11 | 2026-09-02 01:05:24 | 48.64556 | 2.94573 | 114° | 18km/h | 32192m | 6.5m/s | -39.5°C | 0% | 0hPa | 4.8V | 00:00:00 | 00:00:00 | 00:00:00 | |
| DB0UT-7 | 2026-09-02 01:05:18 | 48.64565 | 2.94531 | 121° | 27km/h | 32164m | 7.3m/s | -39.6°C | 0% | 0hPa | 4.8V | 00:00:00 | 00:00:00 | 00:00:00 | |
| DJ2DS-15 | 2026-09-02 01:04:57 | 48.64626 | 2.94363 | 122° | 26km/h | 32046m | 5.6m/s | -40.1°C | 0% | 0hPa | 4.8V | 00:00:00 | 00:00:00 | 00:00:00 | |
| DB0UT-7 | 2026-09-02 01:04:48 | 48.64641 | 2.94281 | 101° | 24km/h | 31995m | 4.4m/s | -40.4°C | 0% | 0hPa | 4.8V | 00:00:00 | 00:00:00 | 00:00:00 | |
| DM0DOS-11 | 2026-09-02 01:04:44 | 48.64642 | 2.94229 | 84° | 49km/h | 31944m | 6.2m/s | -40.8°C | 0% | 0hPa | 4.8V | 00:00:00 | 00:00:00 | 00:00:00 | |
| DJ2DS-15 | 2026-09-02 01:04:37 | 48.64638 | 2.94184 | 83° | 18km/h | 31928m | 6.7m/s | -40.8°C | 0% | 0hPa | 4.8V | 00:00:00 | 00:00:00 | 00:00:00 | |
| DM0DOS-11 | 2026-09-02 01:04:34 | 48.64634 | 2.94148 | 83° | 27km/h | 31886m | 5.5m/s | -41.1°C | 0% | 0hPa | 4.8V | 00:00:00 | 00:00:00 | 00:00:00 | |
| DB0UT-7 | 2026-09-02 01:04:18 | 48.64623 | 2.94057 | 36° | 13km/h | 31813m | 6.9m/s | -41.2°C | 0% | 0hPa | 4.8V | 00:00:00 | 00:00:00 | 00:00:00 | |
| DJ2DS-15 | 2026-09-02 01:04:17 | 48.64623 | 2.94059 | 289° | 15km/h | 31807m | 5.0m/s | -41.2°C | 0% | 0hPa | 4.8V | 00:00:00 | 00:00:00 | 00:00:00 | |
| DJ2DS-15 | 2026-09-02 01:03:57 | 48.64576 | 2.93985 | 51° | 13km/h | 31686m | 7.0m/s | -41.2°C | 0% | 0hPa | 4.8V | 00:00:00 | 00:00:00 | 00:00:00 | |
| DB0UT-7 | 2026-09-02 01:03:48 | 48.64558 | 2.93965 | 65° | 13km/h | 31632m | 7.3m/s | -41.1°C | 0% | 0hPa | 4.8V | 00:00:00 | 00:00:00 | 00:00:00 | |
| DM0DOS-11 | 2026-09-02 01:03:43 | 48.64546 | 2.93934 | 84° | 20km/h | 31566m | 4.8m/s | -41.2°C | 0% | 0hPa | 4.8V | 00:00:00 | 00:00:00 | 00:00:00 | |
| DJ2DS-15 | 2026-09-02 01:03:37 | 48.64546 | 2.93934 | 85° | 13km/h | 31566m | 4.8m/s | -41.2°C | 0% | 0hPa | 4.8V | 00:00:00 | 00:00:00 | 00:00:00 | |
| DM0DOS-11 | 2026-09-02 01:03:30 | 48.64544 | 2.93916 | 300° | 15km/h | 31490m | 6.8m/s | -41.5°C | 0% | 0hPa | 4.8V | 00:00:00 | 00:00:00 | 00:00:00 | |
| DB0UT-7 | 2026-09-02 01:03:18 | 48.64539 | 2.93893 | 110° | 15km/h | 31451m | 4.6m/s | -41.5°C | 0% | 0hPa | 4.8V | 00:00:00 | 00:00:00 | 00:00:00 | |
| DJ2DS-15 | 2026-09-02 01:03:17 | 48.64541 | 2.93888 | 126° | 16km/h | 31444m | 7.1m/s | -41.6°C | 0% | 0hPa | 4.8V | 00:00:00 | 00:00:00 | 00:00:00 | |
| DJ2DS-15 | 2026-09-02 01:03:11 | 48.64531 | 2.93896 | 78° | 24km/h | 31406m | 6.4m/s | -42.0°C | 0.0% | -1.0hPa | 4.8V | 00:00:00 | 00:00:00 | 00:00:00 | |
| DJ2DS-15 | 2026-09-02 01:02:57 | 48.64542 | 2.93831 | 194° | 15km/h | 31320m | 6.0m/s | -42.1°C | 0% | 0hPa | 4.8V | 00:00:00 | 00:00:00 | 00:00:00 | |
| DB0UT-7 | 2026-09-02 01:02:48 | 48.64547 | 2.93800 | 200° | 13km/h | 31266m | 7.4m/s | -42.2°C | 0% | 0hPa | 4.8V | 00:00:00 | 00:00:00 | 00:00:00 | |
| DM0DOS-11 | 2026-09-02 01:02:39 | 48.64562 | 2.93788 | 78° | 16km/h | 31181m | 6.9m/s | -42.4°C | 0% | 0hPa | 4.8V | 00:00:00 | 00:00:00 | 00:00:00 | |
| DJ2DS-15 | 2026-09-02 01:02:37 | 48.64557 | 2.93790 | 218° | 13km/h | 31201m | 4.5m/s | -42.3°C | 0% | 0hPa | 4.8V | 00:00:00 | 00:00:00 | 00:00:00 | |
| DM0DOS-11 | 2026-09-02 01:02:27 | 48.64570 | 2.93764 | 96° | 9km/h | 31116m | 5.8m/s | -42.5°C | 0% | 0hPa | 4.8V | 00:00:00 | 00:00:00 | 00:00:00 | |
| DB0UT-7 | 2026-09-02 01:02:18 | 48.64583 | 2.93767 | 163° | 11km/h | 31085m | 6.7m/s | -42.4°C | 0% | 0hPa | 4.8V | 00:00:00 | 00:00:00 | 00:00:00 | |
| DJ2DS-15 | 2026-09-02 01:02:17 | 48.64584 | 2.93765 | 93° | 15km/h | 31078m | 6.8m/s | -42.4°C | 0% | 0hPa | 4.8V | 00:00:00 | 00:00:00 | 00:00:00 | |
| DM0DOS-11 | 2026-09-02 01:02:15 | 48.64585 | 2.93749 | 169° | 13km/h | 31054m | 7.3m/s | -42.4°C | 0% | 0hPa | 4.8V | 00:00:00 | 00:00:00 | 00:00:00 | |
| DM0DOS-11 | 2026-09-02 01:02:08 | 48.64612 | 2.93723 | 176° | 18km/h | 30988m | 4.8m/s | -42.6°C | 0% | 0hPa | 4.8V | 00:00:00 | 00:00:00 | 00:00:00 | |
| DJ2DS-15 | 2026-09-02 01:01:57 | 48.64618 | 2.93708 | 98° | 11km/h | 30959m | 5.8m/s | -42.6°C | 0% | 0hPa | 4.8V | 00:00:00 | 00:00:00 | 00:00:00 | |
| DM0DOS-11 | 2026-09-02 01:01:52 | 48.64627 | 2.93707 | 236° | 5km/h | 30903m | 6.8m/s | -42.8°C | 0% | 0hPa | 4.8V | 00:00:00 | 00:00:00 | 00:00:00 | |
| DB0UT-7 | 2026-09-02 01:01:48 | 48.64627 | 2.93707 | 237° | 16km/h | 30903m | 6.8m/s | -42.7°C | 0% | 0hPa | 4.8V | 00:00:00 | 00:00:00 | 00:00:00 | |
| DJ2DS-15 | 2026-09-02 01:01:37 | 48.64657 | 2.93703 | 199° | 20km/h | 30841m | 4.2m/s | -42.8°C | 0% | 0hPa | 4.8V | 00:00:00 | 00:00:00 | 00:00:00 | |
| DM0DOS-11 | 2026-09-02 01:01:32 | 48.64671 | 2.93692 | 181° | 40km/h | 30791m | 7m/s | -42.8°C | 0% | 0hPa | 4.8V | 00:00:00 | 00:00:00 | 00:00:00 | |
| DM0DOS-11 | 2026-09-02 01:01:23 | 48.64716 | 2.93683 | 181° | 31km/h | 30727m | 5.4m/s | -42.7°C | 0% | 0hPa | 4.9V | 00:00:00 | 00:00:00 | 00:00:00 | |
| DB0UT-7 | 2026-09-02 01:01:18 | 48.64716 | 2.93682 | 182° | 22km/h | 30727m | 5.4m/s | -42.7°C | 0% | 0hPa | 4.9V | 00:00:00 | 00:00:00 | 00:00:00 | |
| DJ2DS-15 | 2026-09-02 01:01:17 | 48.64723 | 2.93682 | 179° | 20km/h | 30721m | 6.2m/s | -42.7°C | 0% | 0hPa | 4.9V | 00:00:00 | 00:00:00 | 00:00:00 | |
| DM0DOS-11 | 2026-09-02 01:01:08 | 48.64787 | 2.93643 | 173° | 37km/h | 30632m | 5m/s | -42.8°C | 0% | 0hPa | 4.9V | 00:00:00 | 00:00:00 | 00:00:00 | |
| DJ2DS-15 | 2026-09-02 01:00:57 | 48.64805 | 2.93621 | 88° | 24km/h | 30603m | 4.5m/s | -42.8°C | 0% | 0hPa | 4.9V | 00:00:00 | 00:00:00 | 00:00:00 | |
| DM0DOS-11 | 2026-09-02 01:00:52 | 48.64850 | 2.93579 | 96° | 24km/h | 30549m | 4.8m/s | -42.9°C | 0% | 0hPa | 4.9V | 00:00:00 | 00:00:00 | 00:00:00 | |
| DB0UT-7 | 2026-09-02 01:00:47 | 48.64851 | 2.93571 | 111° | 26km/h | 30544m | 5.8m/s | -42.9°C | 0% | 0hPa | 4.8V | 00:00:00 | 00:00:00 | 00:00:00 | |
| DM0DOS-11 | 2026-09-02 01:00:42 | 48.64894 | 2.93531 | 148° | 22km/h | 30486m | 6.9m/s | -43.1°C | 0% | 0hPa | 4.9V | 00:00:00 | 00:00:00 | 00:00:00 | |
| DJ2DS-15 | 2026-09-02 01:00:37 | 48.64894 | 2.93530 | 149° | 27km/h | 30487m | 6.9m/s | -43.0°C | 0% | 0hPa | 4.8V | 00:00:00 | 00:00:00 | 00:00:00 | |
| DM0DOS-11 | 2026-09-02 01:00:32 | 48.64923 | 2.93486 | 141° | 27km/h | 30430m | 7.7m/s | -43.3°C | 0% | 0hPa | 4.9V | 00:00:00 | 00:00:00 | 00:00:00 | |
| DM0DOS-11 | 2026-09-02 01:00:19 | 48.64989 | 2.93407 | 148° | 29km/h | 30354m | 6m/s | -43.5°C | 0% | 0hPa | 4.9V | 00:00:00 | 00:00:00 | 00:00:00 | |
| DB0UT-7 | 2026-09-02 01:00:17 | 48.64974 | 2.93419 | 150° | 22km/h | 30365m | 5.5m/s | -43.5°C | 0% | 0hPa | 4.9V | 00:00:00 | 00:00:00 | 00:00:00 | |
| DM0DOS-11 | 2026-09-02 01:00:03 | 48.65025 | 2.93310 | 133° | 13km/h | 30269m | 7.1m/s | -43.5°C | 0% | 0hPa | 4.9V | 00:00:00 | 00:00:00 | 00:00:00 | |
| DJ2DS-15 | 2026-09-02 00:59:57 | 48.65033 | 2.93310 | 182° | 22km/h | 30253m | 5.2m/s | -43.4°C | 0% | 0hPa | 4.9V | 00:00:00 | 00:00:00 | 00:00:00 | |
| DM0DOS-11 | 2026-09-02 00:59:50 | 48.65062 | 2.93235 | 85° | 16km/h | 30179m | 6.3m/s | -43.2°C | 0% | 0hPa | 4.9V | 00:00:00 | 00:00:00 | 00:00:00 | |
| DB0UT-7 | 2026-09-02 00:59:46 | 48.65063 | 2.93240 | 75° | 24km/h | 30186m | 5.0m/s | -43.2°C | 0% | 0hPa | 4.9V | 00:00:00 | 00:00:00 | 00:00:00 | |
| DM0DOS-11 | 2026-09-02 00:59:39 | 48.65068 | 2.93147 | 132° | 16km/h | 30111m | 5.9m/s | -43.2°C | 0% | 0hPa | 4.9V | 00:00:00 | 00:00:00 | 00:00:00 | |
| DJ2DS-15 | 2026-09-02 00:59:37 | 48.65069 | 2.93168 | 62° | 24km/h | 30131m | 5.2m/s | -43.1°C | 0% | 0hPa | 4.8V | 00:00:00 | 00:00:00 | 00:00:00 | |
| DM0DOS-11 | 2026-09-02 00:59:29 | 48.65060 | 2.93058 | 77° | 24km/h | 30050m | 6.8m/s | -43.4°C | 0% | 0hPa | 4.9V | 00:00:00 | 00:00:00 | 00:00:00 | |
| DM0DOS-11 | 2026-09-02 00:59:19 | 48.65050 | 2.92961 | 61° | 42km/h | 29989m | 6.3m/s | -43.4°C | 0% | 0hPa | 4.9V | 00:00:00 | 00:00:00 | 00:00:00 | |
| DJ2DS-15 | 2026-09-02 00:59:17 | 48.65056 | 2.92997 | 99° | 27km/h | 30009m | 4.5m/s | -43.4°C | 0% | 0hPa | 4.9V | 00:00:00 | 00:00:00 | 00:00:00 | |
| DM0DOS-11 | 2026-09-02 00:59:04 | 48.65032 | 2.92836 | 65° | 18km/h | 29916m | 6.6m/s | -43.5°C | 0% | 0hPa | 4.9V | 00:00:00 | 00:00:00 | 00:00:00 | |
| DM0DOS-11 | 2026-09-02 00:58:57 | 48.65018 | 2.92764 | 50° | 16km/h | 29857m | 5.9m/s | -43.6°C | 0% | 0hPa | 4.9V | 00:00:00 | 00:00:00 | 00:00:00 | |
| DB0UT-7 | 2026-09-02 00:58:48 | 48.64999 | 2.92729 | 67° | 24km/h | 29833m | 5.6m/s | -43.7°C | 0% | 0hPa | 4.8V | 00:00:00 | 00:00:00 | 00:00:00 | |
| DM0DOS-11 | 2026-09-02 00:58:43 | 48.64989 | 2.92649 | 53° | 37km/h | 29783m | 5.7m/s | -43.9°C | 0% | 0hPa | 4.9V | 00:00:00 | 00:00:00 | 00:00:00 | |
| DJ2DS-15 | 2026-09-02 00:58:37 | 48.64979 | 2.92621 | 77° | 22km/h | 29765m | 5.1m/s | -43.9°C | 0% | 0hPa | 4.8V | 00:00:00 | 00:00:00 | 00:00:00 | |
| DM0DOS-11 | 2026-09-02 00:58:33 | 48.64962 | 2.92551 | 79° | 18km/h | 29721m | 7.4m/s | -43.9°C | 0% | 0hPa | 4.9V | 00:00:00 | 00:00:00 | 00:00:00 | |
| DM0DOS-11 | 2026-09-02 00:58:23 | 48.64941 | 2.92479 | 129° | 0km/h | 29661m | 5m/s | -44°C | 0% | 0hPa | 4.9V | 00:00:00 | 00:00:00 | 00:00:00 | |
| DB0UT-7 | 2026-09-02 00:58:18 | 48.64939 | 2.92476 | 45° | 20km/h | 29649m | 6.7m/s | -44.1°C | 0% | 0hPa | 4.9V | 00:00:00 | 00:00:00 | 00:00:00 | |
| DM0DOS-11 | 2026-09-02 00:58:13 | 48.64912 | 2.92422 | 48° | 20km/h | 29598m | 6.6m/s | -44.1°C | 0% | 0hPa | 4.9V | 00:00:00 | 00:00:00 | 00:00:00 | |
| DM0DOS-11 | 2026-09-02 00:58:03 | 48.64888 | 2.92358 | 44° | 29km/h | 29540m | 4.4m/s | -44.2°C | 0% | 0hPa | 4.9V | 00:00:00 | 00:00:00 | 00:00:00 | |
| DJ2DS-15 | 2026-09-02 00:57:57 | 48.64881 | 2.92351 | 250° | 18km/h | 29518m | 6.7m/s | -44.2°C | 0% | 0hPa | 4.9V | 00:00:00 | 00:00:00 | 00:00:00 | |
| DB0UT-7 | 2026-09-02 00:57:48 | 48.64872 | 2.92304 | 34° | 16km/h | 29464m | 6.1m/s | -44.2°C | 0% | 0hPa | 4.9V | 00:00:00 | 00:00:00 | 00:00:00 | |
| DM0DOS-11 | 2026-09-02 00:57:38 | 48.64838 | 2.92234 | 212° | 9km/h | 29373m | 6.1m/s | -44.6°C | 0% | 0hPa | 4.9V | 00:00:00 | 00:00:00 | 00:00:00 | |
| DJ2DS-15 | 2026-09-02 00:57:37 | 48.64853 | 2.92239 | 33° | 16km/h | 29398m | 4.5m/s | -44.4°C | 0% | 0hPa | 4.9V | 00:00:00 | 00:00:00 | 00:00:00 | |
| DM0DOS-11 | 2026-09-02 00:57:24 | 48.64828 | 2.92194 | 31° | 5km/h | 29313m | 5.9m/s | -44.7°C | 0% | 0hPa | 4.9V | 00:00:00 | 00:00:00 | 00:00:00 | |
| DB0UT-7 | 2026-09-02 00:57:18 | 48.64821 | 2.92166 | 89° | 16km/h | 29282m | 7.0m/s | -44.9°C | 0% | 0hPa | 4.9V | 00:00:00 | 00:00:00 | 00:00:00 | |
| DJ2DS-15 | 2026-09-02 00:57:17 | 48.64821 | 2.92161 | 100° | 16km/h | 29276m | 6.1m/s | -44.9°C | 0% | 0hPa | 4.9V | 00:00:00 | 00:00:00 | 00:00:00 | |
| DM0DOS-11 | 2026-09-02 00:57:13 | 48.64804 | 2.92123 | 36° | 24km/h | 29240m | 6.2m/s | -45.1°C | 0% | 0hPa | 4.9V | 00:00:00 | 00:00:00 | 00:00:00 | |
| DM0DOS-11 | 2026-09-02 00:57:03 | 48.64783 | 2.92071 | 249° | 11km/h | 29172m | 6.8m/s | -45.3°C | 0% | 0hPa | 4.9V | 00:00:00 | 00:00:00 | 00:00:00 | |
| DJ2DS-15 | 2026-09-02 00:56:57 | 48.64779 | 2.92079 | 14° | 15km/h | 29155m | 6.0m/s | -45.2°C | 0% | 0hPa | 4.9V | 00:00:00 | 00:00:00 | 00:00:00 | |
| DM0DOS-11 | 2026-09-02 00:56:53 | 48.64766 | 2.92046 | 12° | 13km/h | 29105m | 6.9m/s | -45.4°C | 0% | 0hPa | 4.9V | 00:00:00 | 00:00:00 | 00:00:00 | |
| DB0UT-7 | 2026-09-02 00:56:48 | 48.64762 | 2.92045 | 354° | 13km/h | 29100m | 5.7m/s | -45.4°C | 0% | 0hPa | 4.9V | 00:00:00 | 00:00:00 | 00:00:00 | |
| DM0DOS-11 | 2026-09-02 00:56:43 | 48.64744 | 2.92047 | 60° | 16km/h | 29046m | 5.4m/s | -45.6°C | 0% | 0hPa | 4.9V | 00:00:00 | 00:00:00 | 00:00:00 | |
| DJ2DS-15 | 2026-09-02 00:56:37 | 48.64742 | 2.92043 | 273° | 13km/h | 29033m | 6.3m/s | -45.5°C | 0% | 0hPa | 4.9V | 00:00:00 | 00:00:00 | 00:00:00 | |
| DM0DOS-11 | 2026-09-02 00:56:33 | 48.64721 | 2.92042 | 104° | 5km/h | 28979m | 5.1m/s | -45.6°C | 0% | 0hPa | 4.9V | 00:00:00 | 00:00:00 | 00:00:00 | |
| DM0DOS-11 | 2026-09-02 00:56:18 | 48.64680 | 2.92036 | 299° | 22km/h | 28883m | 5m/s | -45.9°C | 0% | 0hPa | 4.9V | 00:00:00 | 00:00:00 | 00:00:00 | |
| DJ2DS-15 | 2026-09-02 00:56:17 | 48.64692 | 2.92032 | 51° | 16km/h | 28913m | 4.3m/s | -45.7°C | 0% | 0hPa | 4.9V | 00:00:00 | 00:00:00 | 00:00:00 | |
| DM0DOS-11 | 2026-09-02 00:56:07 | 48.64643 | 2.92029 | 350° | 15km/h | 28823m | 6.3m/s | -46°C | 0% | 0hPa | 4.9V | 00:00:00 | 00:00:00 | 00:00:00 | |
| DJ2DS-15 | 2026-09-02 00:55:57 | 48.64622 | 2.92045 | 320° | 20km/h | 28794m | 4.5m/s | -45.9°C | 0% | 0hPa | 4.9V | 00:00:00 | 00:00:00 | 00:00:00 | |
| DM0DOS-11 | 2026-09-02 00:55:52 | 48.64592 | 2.92060 | 269° | 18km/h | 28747m | 5.4m/s | -46.1°C | 0% | 0hPa | 4.9V | 00:00:00 | 00:00:00 | 00:00:00 | |
| DB0UT-7 | 2026-09-02 00:55:48 | 48.64591 | 2.92067 | 281° | 20km/h | 28742m | 4.9m/s | -46.2°C | 0% | 0hPa | 4.9V | 00:00:00 | 00:00:00 | 00:00:00 | |
| DM0DOS-11 | 2026-09-02 00:55:43 | 48.64555 | 2.92109 | 301° | 22km/h | 28690m | 6.2m/s | -46.2°C | 0% | 0hPa | 4.9V | 00:00:00 | 00:00:00 | 00:00:00 | |
| DJ2DS-15 | 2026-09-02 00:55:35 | 48.64540 | 2.92125 | 318° | 20km/h | 28667m | 6.7m/s | -46.2°C | 0% | 0hPa | 4.9V | 00:00:00 | 00:00:00 | 00:00:00 | |
| DM0DOS-11 | 2026-09-02 00:55:33 | 48.64524 | 2.92156 | 331° | 31km/h | 28631m | 5m/s | -46.5°C | 0% | 0hPa | 4.9V | 00:00:00 | 00:00:00 | 00:00:00 | |
| DM0DOS-11 | 2026-09-02 00:55:23 | 48.64503 | 2.92212 | 332° | 20km/h | 28574m | 5.6m/s | -46.4°C | 0% | 0hPa | 4.9V | 00:00:00 | 00:00:00 | 00:00:00 | |
| DB0UT-7 | 2026-09-02 00:55:17 | 48.64496 | 2.92224 | 288° | 22km/h | 28562m | 6.3m/s | -46.3°C | 0% | 0hPa | 4.9V | 00:00:00 | 00:00:00 | 00:00:00 | |
| DJ2DS-15 | 2026-09-02 00:55:15 | 48.64494 | 2.92245 | 279° | 22km/h | 28551m | 4.3m/s | -46.3°C | 0% | 0hPa | 4.9V | 00:00:00 | 00:00:00 | 00:00:00 | |
| DO1YAY-16 | 2026-09-02 00:55:10 | 48.64474 | 2.92272 | 298° | 9km/h | 28514m | 5.8m/s | -46.9°C | 0.0% | -1.0hPa | 4.9V | 00:00:00 | 00:00:00 | 00:00:00 | |
| DM0DOS-11 | 2026-09-02 00:55:02 | 48.64458 | 2.92365 | 236° | 15km/h | 28458m | 5.3m/s | -46.7°C | 0% | 0hPa | 4.9V | 00:00:00 | 00:00:00 | 00:00:00 | |
| DJ2DS-15 | 2026-09-02 00:54:52 | 48.64442 | 2.92398 | 270° | 24km/h | 28417m | 6.3m/s | -47.0°C | 0% | 0hPa | 4.9V | 00:00:00 | 00:00:00 | 00:00:00 | |
| DB0UT-7 | 2026-09-02 00:54:47 | 48.64436 | 2.92440 | 322° | 16km/h | 28388m | 5.3m/s | -47.0°C | 0% | 0hPa | 4.9V | 00:00:00 | 00:00:00 | 00:00:00 | |
| DM0DOS-11 | 2026-09-02 00:54:40 | 48.64417 | 2.92536 | 244° | 22km/h | 28324m | 6.7m/s | -46.9°C | 0% | 0hPa | 4.9V | 00:00:00 | 00:00:00 | 00:00:00 | |
| DJ2DS-15 | 2026-09-02 00:54:32 | 48.64425 | 2.92556 | 294° | 18km/h | 28301m | 5.7m/s | -47.0°C | 0% | 0hPa | 4.9V | 00:00:00 | 00:00:00 | 00:00:00 | |
| DM0DOS-11 | 2026-09-02 00:54:30 | 48.64428 | 2.92611 | 246° | 15km/h | 28261m | 6.4m/s | -47.1°C | 0% | 0hPa | 4.9V | 00:00:00 | 00:00:00 | 00:00:00 | |
| DM0DOS-11 | 2026-09-02 00:54:15 | 48.64441 | 2.92652 | 276° | 5km/h | 28191m | 6.4m/s | -46.8°C | 0% | 0hPa | 4.9V | 00:00:00 | 00:00:00 | 00:00:00 | |
| DO1YAY-16 | 2026-09-02 00:54:08 | 48.64455 | 2.92642 | 322° | 7km/h | 28156m | 6.8m/s | -47.3°C | 0.0% | -1.0hPa | 4.9V | 00:00:00 | 00:00:00 | 00:00:00 | |
| DM0DOS-11 | 2026-09-02 00:54:00 | 48.64473 | 2.92653 | 101° | 22km/h | 28110m | 6.9m/s | -46.7°C | 0% | 0hPa | 4.9V | 00:00:00 | 00:00:00 | 00:00:00 | |
| DB0UT-7 | 2026-09-02 00:53:50 | 48.64473 | 2.92647 | 170° | 16km/h | 28056m | 5.5m/s | -46.4°C | 0% | 0hPa | 4.9V | 00:00:00 | 00:00:00 | 00:00:00 | |
| DM0DOS-11 | 2026-09-02 00:53:44 | 48.64479 | 2.92651 | 170° | 31km/h | 27991m | 4.9m/s | -46.4°C | 0% | 0hPa | 4.9V | 00:00:00 | 00:00:00 | 00:00:00 | |
| DB0UT-7 | 2026-09-02 00:53:20 | 48.64475 | 2.92677 | 260° | 11km/h | 27885m | 5.1m/s | -46.1°C | 0% | 0hPa | 5V | 00:00:00 | 00:00:00 | 00:00:00 | |
| DM0DOS-11 | 2026-09-02 00:53:08 | 48.64482 | 2.92665 | 93° | 15km/h | 27783m | 5m/s | -46.1°C | 0% | 0hPa | 5V | 00:00:00 | 00:00:00 | 00:00:00 | |
| DO1YAY-16 | 2026-09-02 00:53:06 | 48.64479 | 2.92676 | 134° | 15km/h | 27795m | 6.4m/s | -46.6°C | 0.0% | -1.0hPa | 5V | 00:00:00 | 00:00:00 | 00:00:00 | |
| DB0UT-7 | 2026-09-02 00:52:50 | 48.64492 | 2.92662 | 64° | 13km/h | 27707m | 6.0m/s | -46.3°C | 0% | 0hPa | 5V | 00:00:00 | 00:00:00 | 00:00:00 | |
| DM0DOS-11 | 2026-09-02 00:52:43 | 48.64491 | 2.92655 | 97° | 13km/h | 27645m | 6.1m/s | -46.4°C | 0% | 0hPa | 5V | 00:00:00 | 00:00:00 | 00:00:00 | |
| DB0UT-7 | 2026-09-02 00:52:18 | 48.64464 | 2.92648 | 76° | 15km/h | 27525m | 4.9m/s | -46.4°C | 0% | 0hPa | 4.9V | 00:00:00 | 00:00:00 | 00:00:00 | |
| DO1YAY-16 | 2026-09-02 00:52:04 | 48.64464 | 2.92633 | 0° | 5km/h | 27440m | 5.5m/s | -47.0°C | 0.0% | -1.0hPa | 5V | 00:00:00 | 00:00:00 | 00:00:00 | |
| DB0UT-7 | 2026-09-02 00:51:47 | 48.64413 | 2.92629 | 17° | 20km/h | 27342m | 6.3m/s | -46.9°C | 0% | 0hPa | 5V | 00:00:00 | 00:00:00 | 00:00:00 | |
| DJ2DS-15 | 2026-09-02 00:51:33 | 48.64349 | 2.92627 | 43° | 16km/h | 27271m | 3.8m/s | -47.1°C | 0% | 0hPa | 5V | 00:00:00 | 00:00:00 | 00:00:00 | |
| DM0DOS-11 | 2026-09-02 00:51:32 | 48.64344 | 2.92621 | 326° | 5km/h | 27258m | 6.7m/s | -47.2°C | 0% | 0hPa | 5V | 00:00:00 | 00:00:00 | 00:00:00 | |
| DM0DOS-11 | 2026-09-02 00:51:22 | 48.64297 | 2.92638 | 2° | 7km/h | 27196m | 5.8m/s | -47.2°C | 0% | 0hPa | 5V | 00:00:00 | 00:00:00 | 00:00:00 | |
| DB0UT-7 | 2026-09-02 00:51:16 | 48.64279 | 2.92652 | 320° | 16km/h | 27173m | 6.5m/s | -47.4°C | 0% | 0hPa | 5V | 00:00:00 | 00:00:00 | 00:00:00 | |
| DJ2DS-15 | 2026-09-02 00:51:13 | 48.64258 | 2.92669 | 356° | 20km/h | 27157m | 6.7m/s | -47.5°C | 0% | 0hPa | 5V | 00:00:00 | 00:00:00 | 00:00:00 | |
| DM0DOS-11 | 2026-09-02 00:51:12 | 48.64241 | 2.92658 | 46° | 15km/h | 27141m | 5.5m/s | -47.6°C | 0% | 0hPa | 5V | 00:00:00 | 00:00:00 | 00:00:00 | |
| DM0DOS-11 | 2026-09-02 00:51:02 | 48.64204 | 2.92701 | 318° | 11km/h | 27080m | 4.9m/s | -47.8°C | 0% | 0hPa | 5V | 00:00:00 | 00:00:00 | 00:00:00 | |
| DO1YAY-16 | 2026-09-02 00:51:02 | 48.64211 | 2.92693 | 330° | 20km/h | 27090m | 5.8m/s | -48.2°C | 0.0% | -1.0hPa | 4.9V | 00:00:00 | 00:00:00 | 00:00:00 | |
| DJ2DS-15 | 2026-09-02 00:50:53 | 48.64196 | 2.92706 | 284° | 15km/h | 27046m | 7.5m/s | -47.8°C | 0% | 0hPa | 4.9V | 00:00:00 | 00:00:00 | 00:00:00 | |
| DM0DOS-11 | 2026-09-02 00:50:51 | 48.64177 | 2.92740 | 358° | 9km/h | 27007m | 5.6m/s | -48°C | 0% | 0hPa | 5V | 00:00:00 | 00:00:00 | 00:00:00 | |
| DM0DOS-11 | 2026-09-02 00:50:41 | 48.64166 | 2.92792 | 286° | 18km/h | 26951m | 5.2m/s | -48.1°C | 0% | 0hPa | 5V | 00:00:00 | 00:00:00 | 00:00:00 | |
| DJ2DS-15 | 2026-09-02 00:50:32 | 48.64166 | 2.92806 | 217° | 16km/h | 26930m | 3.9m/s | -48.1°C | 0% | 0hPa | 5V | 00:00:00 | 00:00:00 | 00:00:00 | |
| DM0DOS-11 | 2026-09-02 00:50:31 | 48.64164 | 2.92851 | 276° | 20km/h | 26894m | 6.1m/s | -48.4°C | 0% | 0hPa | 5V | 00:00:00 | 00:00:00 | 00:00:00 | |
| DB0UT-7 | 2026-09-02 00:50:22 | 48.64166 | 2.92870 | 263° | 16km/h | 26873m | 6.0m/s | -48.4°C | 0% | 0hPa | 4.9V | 00:00:00 | 00:00:00 | 00:00:00 | |
| DM0DOS-11 | 2026-09-02 00:50:21 | 48.64167 | 2.92915 | 296° | 11km/h | 26840m | 4.6m/s | -48.5°C | 0% | 0hPa | 5V | 00:00:00 | 00:00:00 | 00:00:00 | |
| DJ2DS-15 | 2026-09-02 00:50:12 | 48.64158 | 2.92944 | 284° | 20km/h | 26817m | 5.2m/s | -48.5°C | 0% | 0hPa | 5V | 00:00:00 | 00:00:00 | 00:00:00 | |
| DM0DOS-11 | 2026-09-02 00:50:02 | 48.64156 | 2.93012 | 265° | 20km/h | 26748m | 6.8m/s | -48.6°C | 0% | 0hPa | 5V | 00:00:00 | 00:00:00 | 00:00:00 | |
| DM0DOS-11 | 2026-09-02 00:49:52 | 48.64149 | 2.93080 | 211° | 9km/h | 26675m | 4.9m/s | -48.9°C | 0% | 0hPa | 5V | 00:00:00 | 00:00:00 | 00:00:00 | |
| DB0UT-7 | 2026-09-02 00:49:52 | 48.64151 | 2.93046 | 315° | 13km/h | 26704m | 6.6m/s | -48.7°C | 0% | 0hPa | 5V | 00:00:00 | 00:00:00 | 00:00:00 | |
| DM0DOS-11 | 2026-09-02 00:49:43 | 48.64114 | 2.93115 | 305° | 11km/h | 26564m | 5.2m/s | -49.3°C | 0% | 0hPa | 5V | 00:00:00 | 00:00:00 | 00:00:00 | |
| DM0DOS-11 | 2026-09-02 00:49:37 | 48.64113 | 2.93117 | 289° | 5km/h | 26557m | 6.5m/s | -49.4°C | 0% | 0hPa | 5V | 00:00:00 | 00:00:00 | 00:00:00 | |
| DM0DOS-11 | 2026-09-02 00:49:22 | 48.64090 | 2.93116 | 298° | 5km/h | 26473m | 5.7m/s | -49.4°C | 0% | 0hPa | 5V | 00:00:00 | 00:00:00 | 00:00:00 | |
| DJ2DS-15 | 2026-09-02 00:49:18 | 48.64099 | 2.93115 | 10° | 15km/h | 26512m | 6.2m/s | -49.4°C | 0% | 0hPa | 5V | 00:00:00 | 00:00:00 | 00:00:00 | |
| DM0DOS-11 | 2026-09-02 00:49:03 | 48.64046 | 2.93133 | 322° | 18km/h | 26406m | 6.7m/s | -49.6°C | 0% | 0hPa | 5V | 00:00:00 | 00:00:00 | 00:00:00 | |
| DJ2DS-15 | 2026-09-02 00:48:56 | 48.64029 | 2.93153 | 328° | 20km/h | 26387m | 6.2m/s | -49.7°C | 0% | 0hPa | 5V | 00:00:00 | 00:00:00 | 00:00:00 | |
| DM0DOS-11 | 2026-09-02 00:48:50 | 48.64008 | 2.93197 | 286° | 11km/h | 26343m | 6.4m/s | -50°C | 0% | 0hPa | 5V | 00:00:00 | 00:00:00 | 00:00:00 | |
| DM0DOS-11 | 2026-09-02 00:48:36 | 48.63977 | 2.93289 | 287° | 18km/h | 26265m | 5.2m/s | -50.3°C | 0% | 0hPa | 5V | 00:00:00 | 00:00:00 | 00:00:00 | |
| DJ2DS-15 | 2026-09-02 00:48:36 | 48.63980 | 2.93275 | 283° | 18km/h | 26275m | 5.7m/s | -50.3°C | 0% | 0hPa | 5.0V | 00:00:00 | 00:00:00 | 00:00:00 | |
| DB0UT-7 | 2026-09-02 00:48:26 | 48.63976 | 2.93347 | 278° | 16km/h | 26221m | 5.6m/s | -50.5°C | 0% | 0hPa | 5.0V | 00:00:00 | 00:00:00 | 00:00:00 | |
| DM0DOS-11 | 2026-09-02 00:48:25 | 48.63968 | 2.93369 | 264° | 24km/h | 26186m | 5.9m/s | -50.6°C | 0% | 0hPa | 5V | 00:00:00 | 00:00:00 | 00:00:00 | |
| DJ2DS-15 | 2026-09-02 00:48:16 | 48.63968 | 2.93403 | 286° | 15km/h | 26163m | 5.4m/s | -50.6°C | 0% | 0hPa | 5V | 00:00:00 | 00:00:00 | 00:00:00 | |
| DM0DOS-11 | 2026-09-02 00:48:13 | 48.63963 | 2.93432 | 290° | 7km/h | 26129m | 5m/s | -50.6°C | 0% | 0hPa | 5V | 00:00:00 | 00:00:00 | 00:00:00 | |
| DM0DOS-11 | 2026-09-02 00:48:00 | 48.63964 | 2.93496 | 250° | 18km/h | 26066m | 5.4m/s | -50.8°C | 0% | 0hPa | 5V | 00:00:00 | 00:00:00 | 00:00:00 | |
| DJ2DS-15 | 2026-09-02 00:47:56 | 48.63971 | 2.93514 | 230° | 13km/h | 26049m | 5.9m/s | -50.8°C | 0% | 0hPa | 5V | 00:00:00 | 00:00:00 | 00:00:00 | |
| DM0DOS-11 | 2026-09-02 00:47:49 | 48.63987 | 2.93551 | 223° | 24km/h | 25981m | 5.5m/s | -51°C | 0% | 0hPa | 5V | 00:00:00 | 00:00:00 | 00:00:00 | |
| DM0DOS-11 | 2026-09-02 00:47:38 | 48.64014 | 2.93583 | 228° | 9km/h | 25921m | 4.9m/s | -51°C | 0% | 0hPa | 5V | 00:00:00 | 00:00:00 | 00:00:00 | |
| DJ2DS-15 | 2026-09-02 00:47:36 | 48.64009 | 2.93576 | 236° | 11km/h | 25938m | 5.2m/s | -51.0°C | 0% | 0hPa | 5.0V | 00:00:00 | 00:00:00 | 00:00:00 | |
| DM0DOS-11 | 2026-09-02 00:47:26 | 48.64019 | 2.93622 | 249° | 20km/h | 25864m | 5.7m/s | -50.6°C | 0% | 0hPa | 5V | 00:00:00 | 00:00:00 | 00:00:00 | |
| DM0DOS-11 | 2026-09-02 00:47:15 | 48.64032 | 2.93666 | 202° | 9km/h | 25803m | 6.2m/s | -50.4°C | 0% | 0hPa | 5V | 00:00:00 | 00:00:00 | 00:00:00 | |
| DM0DOS-11 | 2026-09-02 00:47:04 | 48.64041 | 2.93680 | 232° | 9km/h | 25749m | 5.7m/s | -50.2°C | 0% | 0hPa | 5V | 00:00:00 | 00:00:00 | 00:00:00 | |
| DB0UT-7 | 2026-09-02 00:47:03 | 48.64039 | 2.93678 | 192° | 13km/h | 25755m | 4.4m/s | -50.2°C | 0% | 0hPa | 5V | 00:00:00 | 00:00:00 | 00:00:00 | |
| DM0DOS-11 | 2026-09-02 00:46:58 | 48.64051 | 2.93713 | 271° | 9km/h | 25691m | 4.9m/s | -50°C | 0% | 0hPa | 5V | 00:00:00 | 00:00:00 | 00:00:00 | |
| DM0DOS-11 | 2026-09-02 00:46:46 | 48.64069 | 2.93744 | 154° | 18km/h | 25623m | 5.4m/s | -50.5°C | 0% | 0hPa | 5V | 00:00:00 | 00:00:00 | 00:00:00 | |
| DM0DOS-11 | 2026-09-02 00:46:35 | 48.64102 | 2.93772 | 206° | 7km/h | 25573m | 6.5m/s | -50.3°C | 0% | 0hPa | 5V | 00:00:00 | 00:00:00 | 00:00:00 | |
| DB0UT-7 | 2026-09-02 00:46:33 | 48.64097 | 2.93768 | 209° | 18km/h | 25585m | 5.2m/s | -50.3°C | 0% | 0hPa | 5.0V | 00:00:00 | 00:00:00 | 00:00:00 | |
| DM0DOS-11 | 2026-09-02 00:46:10 | 48.64174 | 2.93859 | 182° | 18km/h | 25454m | 4.9m/s | -50.3°C | 0% | 0hPa | 5V | 00:00:00 | 00:00:00 | 00:00:00 | |
| DB0UT-7 | 2026-09-02 00:46:03 | 48.64186 | 2.93862 | 202° | 15km/h | 25420m | 5.5m/s | -50.2°C | 0% | 0hPa | 5V | 00:00:00 | 00:00:00 | 00:00:00 | |
| DO1YAY-16 | 2026-09-02 00:45:51 | 48.64219 | 2.93865 | 174° | 13km/h | 25347m | 6.6m/s | -50.9°C | 0.0% | -1.0hPa | 5V | 00:00:00 | 00:00:00 | 00:00:00 | |
| DB0UT-7 | 2026-09-02 00:45:31 | 48.64257 | 2.93832 | 77° | 9km/h | 25239m | 4.7m/s | -50.3°C | 0% | 0hPa | 5V | 00:00:00 | 00:00:00 | 00:00:00 | |
| DM0DOS-11 | 2026-09-02 00:45:28 | 48.64268 | 2.93816 | 40° | 13km/h | 25201m | 5.3m/s | -50.4°C | 0% | 0hPa | 5V | 00:00:00 | 00:00:00 | 00:00:00 | |
| DM0DOS-11 | 2026-09-02 00:45:16 | 48.64274 | 2.93779 | 47° | 16km/h | 25123m | 4.5m/s | -50.3°C | 0% | 0hPa | 5V | 00:00:00 | 00:00:00 | 00:00:00 | |
| DB0UT-7 | 2026-09-02 00:44:49 | 48.64277 | 2.93730 | 77° | 11km/h | 25012m | 4.9m/s | -50.2°C | 0% | 0hPa | 5.0V | 00:00:00 | 00:00:00 | 00:00:00 | |
| DM0DOS-11 | 2026-09-02 00:44:48 | 48.64266 | 2.93738 | 313° | 15km/h | 24990m | 4.8m/s | -50.3°C | 0% | 0hPa | 5V | 00:00:00 | 00:00:00 | 00:00:00 | |
| DM0DOS-11 | 2026-09-02 00:44:35 | 48.64234 | 2.93735 | 342° | 18km/h | 24910m | 4.3m/s | -50.3°C | 0% | 0hPa | 5V | 00:00:00 | 00:00:00 | 00:00:00 | |
| DM0DOS-11 | 2026-09-02 00:44:23 | 48.64213 | 2.93741 | 318° | 5km/h | 24856m | 5.3m/s | -50.2°C | 0% | 0hPa | 5.1V | 00:00:00 | 00:00:00 | 00:00:00 | |
| DB0UT-7 | 2026-09-02 00:44:19 | 48.64211 | 2.93742 | 354° | 7km/h | 24851m | 4.9m/s | -50.1°C | 0% | 0hPa | 5.1V | 00:00:00 | 00:00:00 | 00:00:00 | |
| DM0DOS-11 | 2026-09-02 00:44:15 | 48.64203 | 2.93725 | 337° | 7km/h | 24802m | 5.3m/s | -50°C | 0% | 0hPa | 5.1V | 00:00:00 | 00:00:00 | 00:00:00 | |
| DM0DOS-11 | 2026-09-02 00:44:02 | 48.64193 | 2.93719 | 357° | 9km/h | 24752m | 4.6m/s | -50.1°C | 0% | 0hPa | 5.1V | 00:00:00 | 00:00:00 | 00:00:00 | |
| DM0DOS-11 | 2026-09-02 00:43:54 | 48.64191 | 2.93702 | 52° | 7km/h | 24693m | 5.3m/s | -50.2°C | 0% | 0hPa | 5.1V | 00:00:00 | 00:00:00 | 00:00:00 | |
| DB0UT-7 | 2026-09-02 00:43:49 | 48.64191 | 2.93702 | 53° | 13km/h | 24694m | 5.3m/s | -50.1°C | 0% | 0hPa | 5.1V | 00:00:00 | 00:00:00 | 00:00:00 | |
| DM0DOS-11 | 2026-09-02 00:43:42 | 48.64187 | 2.93679 | 37° | 7km/h | 24640m | 5.2m/s | -50.1°C | 0% | 0hPa | 5.1V | 00:00:00 | 00:00:00 | 00:00:00 | |
| DM0DOS-11 | 2026-09-02 00:43:34 | 48.64199 | 2.93642 | 141° | 13km/h | 24587m | 5.4m/s | -50.1°C | 0% | 0hPa | 5.1V | 00:00:00 | 00:00:00 | 00:00:00 | |
| DM0DOS-11 | 2026-09-02 00:43:23 | 48.64220 | 2.93595 | 130° | 24km/h | 24533m | 5.8m/s | -50.4°C | 0% | 0hPa | 5.1V | 00:00:00 | 00:00:00 | 00:00:00 | |
| DB0UT-7 | 2026-09-02 00:43:19 | 48.64220 | 2.93595 | 131° | 16km/h | 24533m | 5.7m/s | -50.4°C | 0% | 0hPa | 5.0V | 00:00:00 | 00:00:00 | 00:00:00 | |
| DM0DOS-11 | 2026-09-02 00:43:15 | 48.64245 | 2.93528 | 124° | 26km/h | 24482m | 4.7m/s | -50.6°C | 0% | 0hPa | 5.1V | 00:00:00 | 00:00:00 | 00:00:00 | |
| DM0DOS-11 | 2026-09-02 00:43:02 | 48.64263 | 2.93475 | 105° | 11km/h | 24428m | 4.7m/s | -51°C | 0% | 0hPa | 5.1V | 00:00:00 | 00:00:00 | 00:00:00 | |
| DB0UT-7 | 2026-09-02 00:42:49 | 48.64270 | 2.93437 | 117° | 16km/h | 24378m | 6.0m/s | -51.3°C | 0% | 0hPa | 5.1V | 00:00:00 | 00:00:00 | 00:00:00 | |
| DM0DOS-11 | 2026-09-02 00:42:48 | 48.64275 | 2.93422 | 116° | 26km/h | 24368m | 4.4m/s | -51.4°C | 0% | 0hPa | 5.1V | 00:00:00 | 00:00:00 | 00:00:00 | |
| DM0DOS-11 | 2026-09-02 00:42:42 | 48.64275 | 2.93367 | 46° | 7km/h | 24317m | 5.9m/s | -51.4°C | 0% | 0hPa | 5.1V | 00:00:00 | 00:00:00 | 00:00:00 | |
| DM0DOS-11 | 2026-09-02 00:42:31 | 48.64264 | 2.93330 | 74° | 11km/h | 24261m | 4.3m/s | -51.3°C | 0% | 0hPa | 5.1V | 00:00:00 | 00:00:00 | 00:00:00 | |
| DM0DOS-11 | 2026-09-02 00:42:18 | 48.64248 | 2.93294 | 337° | 9km/h | 24211m | 3.9m/s | -51.5°C | 0% | 0hPa | 5.1V | 00:00:00 | 00:00:00 | 00:00:00 | |
| DM0DOS-11 | 2026-09-02 00:42:05 | 48.64257 | 2.93255 | 60° | 11km/h | 24129m | 4.3m/s | -51.6°C | 0% | 0hPa | 5.1V | 00:00:00 | 00:00:00 | 00:00:00 | |
| DB0UT-7 | 2026-09-02 00:41:54 | 48.64274 | 2.93236 | 154° | 18km/h | 24099m | 4.5m/s | -51.6°C | 0% | 0hPa | 5.1V | 00:00:00 | 00:00:00 | 00:00:00 | |
| DM0DOS-11 | 2026-09-02 00:41:53 | 48.64275 | 2.93201 | 34° | 11km/h | 24067m | 5.8m/s | -51.7°C | 0% | 0hPa | 5.1V | 00:00:00 | 00:00:00 | 00:00:00 | |
| DM0DOS-11 | 2026-09-02 00:41:35 | 48.64285 | 2.93124 | 133° | 22km/h | 23983m | 5.9m/s | -52.1°C | 0% | 0hPa | 5.1V | 00:00:00 | 00:00:00 | 00:00:00 | |
| DB0UT-7 | 2026-09-02 00:41:24 | 48.64274 | 2.93064 | 86° | 18km/h | 23943m | 6.0m/s | -52.2°C | 0% | 0hPa | 5.0V | 00:00:00 | 00:00:00 | 00:00:00 | |
| DM0DOS-11 | 2026-09-02 00:41:22 | 48.64273 | 2.93030 | 47° | 22km/h | 23916m | 6m/s | -52.3°C | 0% | 0hPa | 5.1V | 00:00:00 | 00:00:00 | 00:00:00 | |
| DM0DOS-11 | 2026-09-02 00:41:15 | 48.64238 | 2.92991 | 62° | 16km/h | 23862m | 5.3m/s | -52.5°C | 0% | 0hPa | 5.1V | 00:00:00 | 00:00:00 | 00:00:00 | |
| DO1YAY-16 | 2026-09-02 00:41:12 | 48.64243 | 2.92998 | 21° | 13km/h | 23874m | 4.7m/s | -53.1°C | 0.0% | -1.0hPa | 5.1V | 00:00:00 | 00:00:00 | 00:00:00 | |
| DM0DOS-11 | 2026-09-02 00:41:03 | 48.64207 | 2.92954 | 341° | 16km/h | 23809m | 6.1m/s | -52.3°C | 0% | 0hPa | 5.1V | 00:00:00 | 00:00:00 | 00:00:00 | |
| DB0UT-7 | 2026-09-02 00:40:54 | 48.64188 | 2.92939 | 69° | 13km/h | 23784m | 4.2m/s | -52.3°C | 0% | 0hPa | 5.1V | 00:00:00 | 00:00:00 | 00:00:00 | |
| DM0DOS-11 | 2026-09-02 00:40:48 | 48.64172 | 2.92938 | 319° | 13km/h | 23745m | 5.5m/s | -52.2°C | 0% | 0hPa | 5.1V | 00:00:00 | 00:00:00 | 00:00:00 | |
| DM0DOS-11 | 2026-09-02 00:40:42 | 48.64153 | 2.92955 | 306° | 26km/h | 23692m | 4.4m/s | -52.1°C | 0% | 0hPa | 5.1V | 00:00:00 | 00:00:00 | 00:00:00 | |
| DM0DOS-11 | 2026-09-02 00:40:28 | 48.64137 | 2.92987 | 291° | 18km/h | 23631m | 5.9m/s | -52.1°C | 0% | 0hPa | 5.1V | 00:00:00 | 00:00:00 | 00:00:00 | |
| DB0UT-7 | 2026-09-02 00:40:18 | 48.64134 | 2.93012 | 256° | 11km/h | 23588m | 5.6m/s | -52.0°C | 0% | 0hPa | 5.1V | 00:00:00 | 00:00:00 | 00:00:00 | |
| DM0DOS-11 | 2026-09-02 00:40:17 | 48.64137 | 2.93039 | 247° | 4km/h | 23555m | 6.2m/s | -52°C | 0% | 0hPa | 5.1V | 00:00:00 | 00:00:00 | 00:00:00 | |
| DO1YAY-16 | 2026-09-02 00:40:10 | 48.64139 | 2.93043 | 199° | 7km/h | 23538m | 6.1m/s | -52.6°C | 0.0% | -1.0hPa | 5.1V | 00:00:00 | 00:00:00 | 00:00:00 | |
| DB0UT-7 | 2026-09-02 00:39:48 | 48.64178 | 2.93059 | 76° | 9km/h | 23425m | 4.8m/s | -51.9°C | 0% | 0hPa | 5.1V | 00:00:00 | 00:00:00 | 00:00:00 | |
| DO1YAY-16 | 2026-09-02 00:39:39 | 48.64184 | 2.93047 | 72° | 11km/h | 23370m | 6.0m/s | -52.8°C | 0.0% | -1.0hPa | 5.1V | 00:00:00 | 00:00:00 | 00:00:00 | |
| DB0UT-7 | 2026-09-02 00:39:18 | 48.64150 | 2.93006 | 103° | 11km/h | 23266m | 4.9m/s | -52.4°C | 0% | 0hPa | 5.1V | 00:00:00 | 00:00:00 | 00:00:00 | |
| DM0DOS-11 | 2026-09-02 00:39:09 | 48.64114 | 2.92973 | 62° | 13km/h | 23199m | 4m/s | -52.7°C | 0% | 0hPa | 5.1V | 00:00:00 | 00:00:00 | 00:00:00 | |
| DO1YAY-16 | 2026-09-02 00:39:08 | 48.64116 | 2.92976 | 54° | 11km/h | 23203m | 5.6m/s | -53.4°C | 0.0% | -1.0hPa | 5.1V | 00:00:00 | 00:00:00 | 00:00:00 | |
| DM0DOS-11 | 2026-09-02 00:38:48 | 48.64083 | 2.92960 | 79° | 16km/h | 23091m | 4.4m/s | -53.1°C | 0% | 0hPa | 5.1V | 00:00:00 | 00:00:00 | 00:00:00 | |
| DB0UT-7 | 2026-09-02 00:38:47 | 48.64083 | 2.92971 | 45° | 9km/h | 23108m | 4.3m/s | -53.0°C | 0% | 0hPa | 5.1V | 00:00:00 | 00:00:00 | 00:00:00 | |
| DM0DOS-11 | 2026-09-02 00:38:35 | 48.64071 | 2.92945 | 67° | 7km/h | 23039m | 4.9m/s | -52.8°C | 0% | 0hPa | 5.1V | 00:00:00 | 00:00:00 | 00:00:00 | |
| DM0DOS-11 | 2026-09-02 00:38:28 | 48.64060 | 2.92911 | 86° | 13km/h | 22982m | 5.4m/s | -52.7°C | 0% | 0hPa | 5.1V | 00:00:00 | 00:00:00 | 00:00:00 | |
| DM0DOS-11 | 2026-09-02 00:38:16 | 48.64050 | 2.92860 | 84° | 22km/h | 22923m | 4.2m/s | -52.4°C | 0% | 0hPa | 5.1V | 00:00:00 | 00:00:00 | 00:00:00 | |
| DB0UT-7 | 2026-09-02 00:38:12 | 48.64050 | 2.92867 | 88° | 13km/h | 22928m | 4.6m/s | -52.4°C | 0% | 0hPa | 5.1V | 00:00:00 | 00:00:00 | 00:00:00 | |
| DM0DOS-11 | 2026-09-02 00:38:03 | 48.64047 | 2.92813 | 45° | 9km/h | 22876m | 5.9m/s | -52.5°C | 0% | 0hPa | 5.1V | 00:00:00 | 00:00:00 | 00:00:00 | |
| DB0UT-7 | 2026-09-02 00:37:42 | 48.64021 | 2.92756 | 89° | 9km/h | 22783m | 4.1m/s | -52.4°C | 0% | 0hPa | 5.1V | 00:00:00 | 00:00:00 | 00:00:00 | |
| DO1YAY-16 | 2026-09-02 00:37:34 | 48.63994 | 2.92727 | 325° | 9km/h | 22737m | 5.8m/s | -53.1°C | 0.1% | -1.0hPa | 5.1V | 00:00:00 | 00:00:00 | 00:00:00 | |
| DM0DOS-11 | 2026-09-02 00:37:15 | 48.63948 | 2.92723 | 12° | 13km/h | 22644m | 5.5m/s | -52.2°C | 0% | 0hPa | 5.1V | 00:00:00 | 00:00:00 | 00:00:00 | |
| DM0DOS-11 | 2026-09-02 00:37:02 | 48.63927 | 2.92752 | 313° | 15km/h | 22574m | 5.6m/s | -51.7°C | 0% | 0hPa | 5.1V | 00:00:00 | 00:00:00 | 00:00:00 | |
| DM0DOS-11 | 2026-09-02 00:36:54 | 48.63912 | 2.92773 | 254° | 7km/h | 22523m | 5.3m/s | -51.6°C | 0% | 0hPa | 5.1V | 00:00:00 | 00:00:00 | 00:00:00 | |
| DM0DOS-11 | 2026-09-02 00:36:42 | 48.63913 | 2.92785 | 259° | 13km/h | 22472m | 6m/s | -51.9°C | 0% | 0hPa | 5.1V | 00:00:00 | 00:00:00 | 00:00:00 | |
| DM0DOS-11 | 2026-09-02 00:36:31 | 48.63939 | 2.92824 | 286° | 9km/h | 22402m | 4.7m/s | -52.5°C | 0% | 0hPa | 5.2V | 00:00:00 | 00:00:00 | 00:00:00 | |
| DM0DOS-11 | 2026-09-02 00:36:18 | 48.63977 | 2.92847 | 184° | 7km/h | 22348m | 5m/s | -52.5°C | 0% | 0hPa | 5.2V | 00:00:00 | 00:00:00 | 00:00:00 | |
| DM0DOS-11 | 2026-09-02 00:36:05 | 48.64010 | 2.92850 | 98° | 2km/h | 22286m | 5.2m/s | -52.6°C | 0% | 0hPa | 5.2V | 00:00:00 | 00:00:00 | 00:00:00 | |
| DO1YAY-16 | 2026-09-02 00:36:01 | 48.64009 | 2.92843 | 102° | 13km/h | 22275m | 5.0m/s | -53.3°C | 0.0% | -1.0hPa | 5.2V | 00:00:00 | 00:00:00 | 00:00:00 | |
| DM0DOS-11 | 2026-09-02 00:35:53 | 48.64034 | 2.92821 | 146° | 9km/h | 22233m | 5.8m/s | -53.3°C | 0% | 0hPa | 5.2V | 00:00:00 | 00:00:00 | 00:00:00 | |
| DM0DOS-11 | 2026-09-02 00:35:43 | 48.64040 | 2.92774 | 163° | 9km/h | 22182m | 5m/s | -53.3°C | 0% | 0hPa | 5.2V | 00:00:00 | 00:00:00 | 00:00:00 | |
| DM0DOS-11 | 2026-09-02 00:35:33 | 48.64051 | 2.92741 | 93° | 7km/h | 22130m | 5.3m/s | -53.4°C | 0% | 0hPa | 5.2V | 00:00:00 | 00:00:00 | 00:00:00 | |
| DM0DOS-11 | 2026-09-02 00:35:23 | 48.64047 | 2.92718 | 210° | 11km/h | 22068m | 5.6m/s | -53.5°C | 0% | 0hPa | 5.2V | 00:00:00 | 00:00:00 | 00:00:00 | |
| DB0UT-7 | 2026-09-02 00:35:17 | 48.64055 | 2.92723 | 217° | 9km/h | 22054m | 5.6m/s | -53.4°C | 0% | 0hPa | 5.2V | 00:00:00 | 00:00:00 | 00:00:00 | |
| DM0DOS-11 | 2026-09-02 00:35:12 | 48.64053 | 2.92715 | 257° | 5km/h | 22017m | 5m/s | -53.3°C | 0% | 0hPa | 5.2V | 00:00:00 | 00:00:00 | 00:00:00 | |
| DM0DOS-11 | 2026-09-02 00:35:02 | 48.64061 | 2.92706 | 105° | 15km/h | 21966m | 5.4m/s | -53.1°C | 0% | 0hPa | 5.2V | 00:00:00 | 00:00:00 | 00:00:00 | |
| DM0DOS-11 | 2026-09-02 00:34:47 | 48.64062 | 2.92668 | 334° | 7km/h | 21875m | 3.5m/s | -52.7°C | 0% | 0hPa | 5.2V | 00:00:00 | 00:00:00 | 00:00:00 | |
| DB0UT-7 | 2026-09-02 00:34:44 | 48.64064 | 2.92666 | 90° | 11km/h | 21884m | 6.2m/s | -52.6°C | 0% | 0hPa | 5.2V | 00:00:00 | 00:00:00 | 00:00:00 | |
| DM0DOS-11 | 2026-09-02 00:34:26 | 48.64070 | 2.92603 | 130° | 15km/h | 21787m | 5.2m/s | -52.7°C | 0% | 0hPa | 5.2V | 00:00:00 | 00:00:00 | 00:00:00 | |
| DM0DOS-11 | 2026-09-02 00:34:16 | 48.64065 | 2.92561 | 68° | 22km/h | 21737m | 4.1m/s | -52.6°C | 0% | 0hPa | 5.2V | 00:00:00 | 00:00:00 | 00:00:00 | |
| DB0UT-7 | 2026-09-02 00:34:15 | 48.64065 | 2.92561 | 69° | 15km/h | 21738m | 4.0m/s | -52.6°C | 0% | 0hPa | 5.1V | 00:00:00 | 00:00:00 | 00:00:00 | |
| DM0DOS-11 | 2026-09-02 00:34:08 | 48.64065 | 2.92515 | 107° | 18km/h | 21688m | 4.4m/s | -52.3°C | 0% | 0hPa | 5.2V | 00:00:00 | 00:00:00 | 00:00:00 | |
| DM0DOS-11 | 2026-09-02 00:33:56 | 48.64076 | 2.92452 | 80° | 18km/h | 21616m | 5.4m/s | -51.8°C | 0% | 0hPa | 5.2V | 00:00:00 | 00:00:00 | 00:00:00 | |
| DM0DOS-11 | 2026-09-02 00:33:43 | 48.64094 | 2.92421 | 117° | 22km/h | 21563m | 4.6m/s | -51.6°C | 0% | 0hPa | 5.2V | 00:00:00 | 00:00:00 | 00:00:00 | |
| DM0DOS-11 | 2026-09-02 00:33:28 | 48.64113 | 2.92372 | 141° | 7km/h | 21486m | 5.3m/s | -51.4°C | 0% | 0hPa | 5.2V | 00:00:00 | 00:00:00 | 00:00:00 | |
| DB0UT-7 | 2026-09-02 00:33:23 | 48.64114 | 2.92371 | 174° | 15km/h | 21481m | 4.9m/s | -51.3°C | 0% | 0hPa | 5.2V | 00:00:00 | 00:00:00 | 00:00:00 | |
| DM0DOS-11 | 2026-09-02 00:33:15 | 48.64140 | 2.92354 | 191° | 18km/h | 21428m | 4.4m/s | -51.2°C | 0% | 0hPa | 5.2V | 00:00:00 | 00:00:00 | 00:00:00 | |
| DB0UT-7 | 2026-09-02 00:32:51 | 48.64212 | 2.92329 | 143° | 20km/h | 21334m | 5.7m/s | -51.7°C | 0% | 0hPa | 5.2V | 00:00:00 | 00:00:00 | 00:00:00 | |
| DM0DOS-11 | 2026-09-02 00:32:44 | 48.64263 | 2.92271 | 132° | 22km/h | 21276m | 5.1m/s | -52°C | 0% | 0hPa | 5.2V | 00:00:00 | 00:00:00 | 00:00:00 | |
| DM0DOS-11 | 2026-09-02 00:32:33 | 48.64287 | 2.92191 | 112° | 18km/h | 21225m | 4.3m/s | -52°C | 0% | 0hPa | 5.2V | 00:00:00 | 00:00:00 | 00:00:00 | |
| DM0DOS-11 | 2026-09-02 00:32:23 | 48.64304 | 2.92121 | 115° | 27km/h | 21179m | 4.5m/s | -52.1°C | 0% | 0hPa | 5.2V | 00:00:00 | 00:00:00 | 00:00:00 | |
| DB0UT-7 | 2026-09-02 00:32:21 | 48.64301 | 2.92147 | 80° | 24km/h | 21194m | 3.3m/s | -52.0°C | 0% | 0hPa | 5.1V | 00:00:00 | 00:00:00 | 00:00:00 | |
| DM0DOS-11 | 2026-09-02 00:32:13 | 48.64315 | 2.92041 | 74° | 22km/h | 21134m | 3.4m/s | -52.3°C | 0% | 0hPa | 5.2V | 00:00:00 | 00:00:00 | 00:00:00 | |
| DB0UT-7 | 2026-09-02 00:31:51 | 48.64321 | 2.91888 | 81° | 22km/h | 21053m | 5.4m/s | -52.3°C | 0% | 0hPa | 5.2V | 00:00:00 | 00:00:00 | 00:00:00 | |
| DM0DOS-11 | 2026-09-02 00:31:49 | 48.64317 | 2.91856 | 88° | 15km/h | 21033m | 4.6m/s | -52.2°C | 0% | 0hPa | 5.2V | 00:00:00 | 00:00:00 | 00:00:00 | |
| DM0DOS-11 | 2026-09-02 00:31:39 | 48.64310 | 2.91772 | 75° | 27km/h | 20988m | 4.9m/s | -52.2°C | 0% | 0hPa | 5.2V | 00:00:00 | 00:00:00 | 00:00:00 | |
| DM0DOS-11 | 2026-09-02 00:31:28 | 48.64288 | 2.91702 | 61° | 20km/h | 20940m | 4.3m/s | -52.2°C | 0% | 0hPa | 5.2V | 00:00:00 | 00:00:00 | 00:00:00 | |
| DB0UT-7 | 2026-09-02 00:31:21 | 48.64271 | 2.91664 | 45° | 18km/h | 20912m | 4.7m/s | -52.1°C | 0% | 0hPa | 5.2V | 00:00:00 | 00:00:00 | 00:00:00 | |
| DM0DOS-11 | 2026-09-02 00:31:16 | 48.64258 | 2.91611 | 72° | 16km/h | 20869m | 5.4m/s | -52.2°C | 0% | 0hPa | 5.2V | 00:00:00 | 00:00:00 | 00:00:00 | |
| DM0DOS-11 | 2026-09-02 00:30:56 | 48.64275 | 2.91462 | 96° | 22km/h | 20777m | 5.5m/s | -53.1°C | 0% | 0hPa | 5.2V | 00:00:00 | 00:00:00 | 00:00:00 | |
| DB0UT-7 | 2026-09-02 00:30:51 | 48.64275 | 2.91453 | 86° | 18km/h | 20772m | 4.8m/s | -53.1°C | 0% | 0hPa | 5.2V | 00:00:00 | 00:00:00 | 00:00:00 | |
| DM0DOS-11 | 2026-09-02 00:30:28 | 48.64241 | 2.91334 | 38° | 15km/h | 20658m | 5m/s | -53.2°C | 0% | 0hPa | 5.2V | 00:00:00 | 00:00:00 | 00:00:00 | |
| DB0UT-7 | 2026-09-02 00:30:09 | 48.64232 | 2.91250 | 116° | 27km/h | 20570m | 6.0m/s | -52.9°C | 0% | 0hPa | 5.2V | 00:00:00 | 00:00:00 | 00:00:00 | |
| DB0UT-7 | 2026-09-02 00:29:38 | 48.64270 | 2.90958 | 99° | 24km/h | 20420m | 4.2m/s | -53.4°C | 0% | 0hPa | 5.2V | 00:00:00 | 00:00:00 | 00:00:00 | |
| DM0DOS-11 | 2026-09-02 00:29:26 | 48.64266 | 2.90840 | 94° | 20km/h | 20343m | 5.3m/s | -53.5°C | 0% | 0hPa | 5.2V | 00:00:00 | 00:00:00 | 00:00:00 | |
| DM0DOS-11 | 2026-09-02 00:29:15 | 48.64256 | 2.90713 | 92° | 31km/h | 20279m | 4.7m/s | -53.1°C | 0% | 0hPa | 5.2V | 00:00:00 | 00:00:00 | 00:00:00 | |
| DB0UT-7 | 2026-09-02 00:29:08 | 48.64256 | 2.90689 | 82° | 35km/h | 20269m | 5.6m/s | -53.2°C | 0% | 0hPa | 5.2V | 00:00:00 | 00:00:00 | 00:00:00 | |
| DM0DOS-11 | 2026-09-02 00:29:03 | 48.64256 | 2.90601 | 87° | 27km/h | 20228m | 3.4m/s | -53.6°C | 0% | 0hPa | 5.2V | 00:00:00 | 00:00:00 | 00:00:00 | |
| DM0DOS-11 | 2026-09-02 00:28:46 | 48.64250 | 2.90384 | 80° | 37km/h | 20155m | 3.8m/s | -53.5°C | 0% | 0hPa | 5.2V | 00:00:00 | 00:00:00 | 00:00:00 | |
| DB0UT-7 | 2026-09-02 00:28:38 | 48.64251 | 2.90298 | 79° | 29km/h | 20119m | 5.6m/s | -53.4°C | 0% | 0hPa | 5.2V | 00:00:00 | 00:00:00 | 00:00:00 | |
| DM0DOS-11 | 2026-09-02 00:28:31 | 48.64233 | 2.90193 | 93° | 27km/h | 20079m | 5.1m/s | -53.4°C | 0% | 0hPa | 5.2V | 00:00:00 | 00:00:00 | 00:00:00 | |
| DM0DOS-11 | 2026-09-02 00:28:06 | 48.64158 | 2.89909 | 56° | 33km/h | 19937m | 5.2m/s | -53.2°C | 0% | 0hPa | 5.2V | 00:00:00 | 00:00:00 | 00:00:00 | |
| DB0UT-7 | 2026-09-02 00:27:56 | 48.64142 | 2.89867 | 56° | 24km/h | 19914m | 4.4m/s | -53.2°C | 0% | 0hPa | 5.2V | 00:00:00 | 00:00:00 | 00:00:00 | |
| DM0DOS-11 | 2026-09-02 00:27:31 | 48.64050 | 2.89666 | 18° | 26km/h | 19785m | 4.9m/s | -53.3°C | 0% | 0hPa | 5.2V | 00:00:00 | 00:00:00 | 00:00:00 | |
| DB0UT-7 | 2026-09-02 00:27:27 | 48.64033 | 2.89649 | 54° | 16km/h | 19771m | 4.6m/s | -53.1°C | 0% | 0hPa | 5.2V | 00:00:00 | 00:00:00 | 00:00:00 | |
| DM0DOS-11 | 2026-09-02 00:27:06 | 48.63989 | 2.89540 | 28° | 18km/h | 19663m | 4.7m/s | -52.5°C | 0% | 0hPa | 5.3V | 00:00:00 | 00:00:00 | 00:00:00 | |
| DM0DOS-11 | 2026-09-02 00:26:45 | 48.63988 | 2.89474 | 104° | 7km/h | 19568m | 5.2m/s | -52°C | 0% | 0hPa | 5.3V | 00:00:00 | 00:00:00 | 00:00:00 | |
| DM0DOS-11 | 2026-09-02 00:26:35 | 48.64000 | 2.89444 | 89° | 15km/h | 19520m | 3.9m/s | -52.1°C | 0% | 0hPa | 5.3V | 00:00:00 | 00:00:00 | 00:00:00 | |
| DM0DOS-11 | 2026-09-02 00:26:20 | 48.64042 | 2.89381 | 155° | 16km/h | 19449m | 4.5m/s | -52°C | 0% | 0hPa | 5.3V | 00:00:00 | 00:00:00 | 00:00:00 | |
| DB0UT-7 | 2026-09-02 00:26:17 | 48.64050 | 2.89375 | 149° | 22km/h | 19440m | 4.9m/s | -52.1°C | 0% | 0hPa | 5.3V | 00:00:00 | 00:00:00 | 00:00:00 | |
| DM0DOS-11 | 2026-09-02 00:26:15 | 48.64062 | 2.89320 | 116° | 18km/h | 19402m | 4.4m/s | -52.2°C | 0% | 0hPa | 5.3V | 00:00:00 | 00:00:00 | 00:00:00 | |
| DM0DOS-11 | 2026-09-02 00:25:56 | 48.64082 | 2.89201 | 74° | 22km/h | 19324m | 3.8m/s | -52.5°C | 0% | 0hPa | 5.3V | 00:00:00 | 00:00:00 | 00:00:00 | |
| DB0UT-7 | 2026-09-02 00:25:47 | 48.64084 | 2.89143 | 96° | 20km/h | 19301m | 4.4m/s | -52.5°C | 0% | 0hPa | 5.2V | 00:00:00 | 00:00:00 | 00:00:00 | |
| DB0UT-7 | 2026-09-02 00:25:17 | 48.64142 | 2.88884 | 113° | 38km/h | 19162m | 3.7m/s | -52.7°C | 0% | 0hPa | 5.3V | 00:00:00 | 00:00:00 | 00:00:00 | |
| DM0DOS-11 | 2026-09-02 00:25:16 | 48.64149 | 2.88842 | 101° | 38km/h | 19148m | 4.3m/s | -52.8°C | 0% | 0hPa | 5.3V | 00:00:00 | 00:00:00 | 00:00:00 | |
| DM0DOS-11 | 2026-09-02 00:25:05 | 48.64204 | 2.88667 | 108° | 38km/h | 19088m | 4.4m/s | -52.9°C | 0% | 0hPa | 5.3V | 00:00:00 | 00:00:00 | 00:00:00 | |
| DB0UT-7 | 2026-09-02 00:24:47 | 48.64250 | 2.88460 | 104° | 40km/h | 19025m | 4.5m/s | -53.3°C | 0% | 0hPa | 5.3V | 00:00:00 | 00:00:00 | 00:00:00 | |
| DM0DOS-11 | 2026-09-02 00:24:46 | 48.64256 | 2.88373 | 88° | 42km/h | 19003m | 3.3m/s | -53.5°C | 0% | 0hPa | 5.3V | 00:00:00 | 00:00:00 | 00:00:00 | |
| DB0UT-7 | 2026-09-02 00:24:17 | 48.64245 | 2.88002 | 75° | 31km/h | 18889m | 4.9m/s | -52.9°C | 0% | 0hPa | 5.2V | 00:00:00 | 00:00:00 | 00:00:00 | |
| DB0UT-7 | 2026-09-02 00:23:47 | 48.64240 | 2.87664 | 94° | 27km/h | 18750m | 4.4m/s | -52.3°C | 0% | 0hPa | 5.3V | 00:00:00 | 00:00:00 | 00:00:00 | |
| DB0UT-7 | 2026-09-02 00:23:17 | 48.64296 | 2.87342 | 107° | 38km/h | 18614m | 4.0m/s | -52.5°C | 0% | 0hPa | 5.3V | 00:00:00 | 00:00:00 | 00:00:00 | |
| DB0UT-7 | 2026-09-02 00:22:47 | 48.64369 | 2.86911 | 94° | 47km/h | 18472m | 5.1m/s | -52.9°C | 0% | 0hPa | 5.3V | 00:00:00 | 00:00:00 | 00:00:00 | |
| DB0UT-7 | 2026-09-02 00:22:17 | 48.64418 | 2.86384 | 90° | 42km/h | 18331m | 5.7m/s | -52.8°C | 0% | 0hPa | 5.3V | 00:00:00 | 00:00:00 | 00:00:00 | |
| DB0UT-7 | 2026-09-02 00:21:05 | 48.64454 | 2.85241 | 94° | 42km/h | 17993m | 3.5m/s | -53.0°C | 0% | 0hPa | 5.3V | 00:00:00 | 00:00:00 | 00:00:00 | |
| DB0UT-7 | 2026-09-02 00:19:22 | 48.64437 | 2.83581 | 89° | 35km/h | 17550m | 3.9m/s | -53.4°C | 0% | 0hPa | 5.3V | 00:00:00 | 00:00:00 | 00:00:00 | |
| DB0UT-7 | 2026-09-02 00:18:52 | 48.64452 | 2.83195 | 96° | 46km/h | 17423m | 4.4m/s | -53.6°C | 0% | 0hPa | 5.3V | 00:00:00 | 00:00:00 | 00:00:00 | |
| DM0DOS-11 | 2026-09-02 00:17:55 | 48.64537 | 2.82062 | 84° | 40km/h | 17140m | 4.8m/s | -54°C | 0% | 0hPa | 5.3V | 00:00:00 | 00:00:00 | 00:00:00 | |
| DM0DOS-11 | 2026-09-02 00:17:44 | 48.64537 | 2.81909 | 87° | 42km/h | 17097m | 5.3m/s | -53.9°C | 0% | 0hPa | 5.4V | 00:00:00 | 00:00:00 | 00:00:00 | |
| DB0UT-7 | 2026-09-02 00:17:41 | 48.64537 | 2.81927 | 92° | 44km/h | 17102m | 4.8m/s | -53.8°C | 0% | 0hPa | 5.3V | 00:00:00 | 00:00:00 | 00:00:00 | |
| DM0DOS-11 | 2026-09-02 00:17:35 | 48.64549 | 2.81743 | 113° | 46km/h | 17047m | 3.3m/s | -53.7°C | 0% | 0hPa | 5.4V | 00:00:00 | 00:00:00 | 00:00:00 | |
| DM0DOS-11 | 2026-09-02 00:17:24 | 48.64564 | 2.81576 | 121° | 49km/h | 17000m | 5.6m/s | -54.1°C | 0% | 0hPa | 5.4V | 00:00:00 | 00:00:00 | 00:00:00 | |
| DM0DOS-11 | 2026-09-02 00:17:14 | 48.64592 | 2.81405 | 104° | 46km/h | 16953m | 4.9m/s | -54°C | 0% | 0hPa | 5.4V | 00:00:00 | 00:00:00 | 00:00:00 | |
| DB0UT-7 | 2026-09-02 00:17:11 | 48.64587 | 2.81438 | 100° | 44km/h | 16963m | 4.3m/s | -53.9°C | 0% | 0hPa | 5.4V | 00:00:00 | 00:00:00 | 00:00:00 | |
| DM0DOS-11 | 2026-09-02 00:17:05 | 48.64612 | 2.81207 | 92° | 47km/h | 16908m | 4.4m/s | -54°C | 0% | 0hPa | 5.4V | 00:00:00 | 00:00:00 | 00:00:00 | |
| DM0DOS-11 | 2026-09-02 00:16:51 | 48.64627 | 2.80951 | 97° | 44km/h | 16849m | 3.9m/s | -54°C | 0% | 0hPa | 5.4V | 00:00:00 | 00:00:00 | 00:00:00 | |
| DM0DOS-11 | 2026-09-02 00:16:40 | 48.64626 | 2.80722 | 90° | 47km/h | 16798m | 3.4m/s | -54.2°C | 0% | 0hPa | 5.4V | 00:00:00 | 00:00:00 | 00:00:00 | |
| DB0UT-7 | 2026-09-02 00:16:28 | 48.64622 | 2.80582 | 81° | 51km/h | 16770m | 3.9m/s | -54.1°C | 0% | 0hPa | 5.4V | 00:00:00 | 00:00:00 | 00:00:00 | |
| DM0DOS-11 | 2026-09-02 00:16:24 | 48.64608 | 2.80416 | 88° | 55km/h | 16736m | 4.6m/s | -54.1°C | 0% | 0hPa | 5.4V | 00:00:00 | 00:00:00 | 00:00:00 | |
| DB0UT-7 | 2026-09-02 00:15:58 | 48.64558 | 2.79997 | 74° | 44km/h | 16639m | 4.1m/s | -53.9°C | 0% | 0hPa | 5.3V | 00:00:00 | 00:00:00 | 00:00:00 | |
| DB0UT-7 | 2026-09-02 00:15:28 | 48.64476 | 2.79501 | 81° | 44km/h | 16509m | 4.0m/s | -54.1°C | 0% | 0hPa | 5.3V | 00:00:00 | 00:00:00 | 00:00:00 | |
| DB0UT-7 | 2026-09-02 00:14:56 | 48.64430 | 2.79033 | 90° | 46km/h | 16374m | 4.2m/s | -53.5°C | 0% | 0hPa | 5.3V | 00:00:00 | 00:00:00 | 00:00:00 | |
| DB0UT-7 | 2026-09-02 00:14:13 | 48.64504 | 2.78354 | 80° | 51km/h | 16183m | 5.2m/s | -54.2°C | 0% | 0hPa | 5.3V | 00:00:00 | 00:00:00 | 00:00:00 | |
| DB0UT-7 | 2026-09-02 00:13:43 | 48.64697 | 2.77847 | 118° | 71km/h | 16018m | 6.1m/s | -53.3°C | 0% | 0hPa | 5.4V | 00:00:00 | 00:00:00 | 00:00:00 | |
| DB0UT-7 | 2026-09-02 00:13:05 | 48.64989 | 2.76882 | 111° | 75km/h | 15803m | 4.7m/s | -53.9°C | 0% | 0hPa | 5.4V | 00:00:00 | 00:00:00 | 00:00:00 | |
| DB0UT-7 | 2026-09-02 00:12:32 | 48.65141 | 2.75998 | 107° | 71km/h | 15645m | 4.5m/s | -54.1°C | 0% | 0hPa | 5.4V | 00:00:00 | 00:00:00 | 00:00:00 | |
| DB0UT-7 | 2026-09-02 00:12:02 | 48.65267 | 2.75204 | 92° | 69km/h | 15507m | 4.3m/s | -54.5°C | 0% | 0hPa | 5.4V | 00:00:00 | 00:00:00 | 00:00:00 | |
| DB0UT-7 | 2026-09-02 00:11:32 | 48.65391 | 2.74437 | 105° | 68km/h | 15374m | 4.6m/s | -54.7°C | 0% | 0hPa | 5.4V | 00:00:00 | 00:00:00 | 00:00:00 | |
| DB0UT-7 | 2026-09-02 00:11:02 | 48.65484 | 2.73650 | 99° | 62km/h | 15242m | 3.5m/s | -54.6°C | 0% | 0hPa | 5.4V | 00:00:00 | 00:00:00 | 00:00:00 | |
| DB0UT-7 | 2026-09-02 00:10:32 | 48.65547 | 2.72943 | 107° | 62km/h | 15119m | 3.1m/s | -54.2°C | 0% | 0hPa | 5.4V | 00:00:00 | 00:00:00 | 00:00:00 | |
| DB0UT-7 | 2026-09-02 00:10:02 | 48.65661 | 2.72259 | 98° | 69km/h | 14996m | 3.1m/s | -54.4°C | 0% | 0hPa | 5.4V | 00:00:00 | 00:00:00 | 00:00:00 | |
| DB0UT-7 | 2026-09-02 00:09:05 | 48.65880 | 2.70818 | 100° | 73km/h | 14761m | 4.6m/s | -54.4°C | 0% | 0hPa | 5.4V | 00:00:00 | 00:00:00 | 00:00:00 | |
| DB0UT-7 | 2026-09-02 00:08:35 | 48.65976 | 2.69999 | 102° | 68km/h | 14633m | 3.6m/s | -54.3°C | 0% | 0hPa | 5.4V | 00:00:00 | 00:00:00 | 00:00:00 | |
| DB0UT-7 | 2026-09-02 00:07:57 | 48.66080 | 2.69022 | 100° | 64km/h | 14465m | 4.6m/s | -55.0°C | 0% | 0hPa | 5.4V | 00:00:00 | 00:00:00 | 00:00:00 | |
| DB0UT-7 | 2026-09-02 00:07:25 | 48.66232 | 2.68289 | 111° | 69km/h | 14316m | 3.6m/s | -54.5°C | 0% | 0hPa | 5.4V | 00:00:00 | 00:00:00 | 00:00:00 | |
| DB0UT-7 | 2026-09-02 00:06:55 | 48.66417 | 2.67548 | 122° | 68km/h | 14183m | 4.4m/s | -53.7°C | 0% | 0hPa | 5.4V | 00:00:00 | 00:00:00 | 00:00:00 | |
| DB0UT-7 | 2026-09-02 00:05:42 | 48.66900 | 2.65862 | 109° | 75km/h | 13865m | 4.3m/s | -52.5°C | 0% | 0hPa | 5.4V | 00:00:00 | 00:00:00 | 00:00:00 | |
| DB0UT-7 | 2026-09-02 00:05:11 | 48.67083 | 2.65051 | 114° | 80km/h | 13743m | 4.8m/s | -52.7°C | 0% | 0hPa | 5.4V | 00:00:00 | 00:00:00 | 00:00:00 | |
| DB0UT-7 | 2026-09-02 00:03:31 | 48.68006 | 2.62215 | 125° | 93km/h | 13321m | 4.0m/s | -53.6°C | 0% | 0hPa | 5.5V | 00:00:00 | 00:00:00 | 00:00:00 | |
| DB0UT-7 | 2026-09-02 00:02:26 | 48.68995 | 2.59927 | 117° | 88km/h | 13024m | 3.8m/s | -53.5°C | 0% | 0hPa | 5.5V | 00:00:00 | 00:00:00 | 00:00:00 | |
| DB0UT-7 | 2026-09-02 00:01:56 | 48.69265 | 2.59019 | 113° | 84km/h | 12899m | 3.8m/s | -53.9°C | 0% | 0hPa | 5.5V | 00:00:00 | 00:00:00 | 00:00:00 | |
| DB0UT-7 | 2026-09-02 00:00:49 | 48.69756 | 2.57225 | 118° | 77km/h | 12637m | 5.3m/s | -54.1°C | 0% | 0hPa | 5.5V | 00:00:00 | 00:00:00 | 00:00:00 | |
| DB0UT-7 | 2026-09-02 00:00:21 | 48.70037 | 2.56473 | 125° | 80km/h | 12506m | 5.0m/s | -54.6°C | 0% | 0hPa | 5.5V | 00:00:00 | 00:00:00 | 00:00:00 | |
| DB0UT-7 | 2026-09-01 23:59:46 | 48.70408 | 2.55729 | 131° | 80km/h | 12375m | 3.9m/s | -54.7°C | 0% | 0hPa | 5.5V | 00:00:00 | 00:00:00 | 00:00:00 | |
| DB0UT-7 | 2026-09-01 23:59:15 | 48.70802 | 2.55017 | 137° | 88km/h | 12244m | 3.9m/s | -54.8°C | 0% | 0hPa | 5.5V | 00:00:00 | 00:00:00 | 00:00:00 | |
| DB0UT-7 | 2026-09-01 23:58:42 | 48.71316 | 2.54223 | 133° | 89km/h | 12101m | 4.1m/s | -55.0°C | 0% | 0hPa | 5.5V | 00:00:00 | 00:00:00 | 00:00:00 | |
| DB0UT-7 | 2026-09-01 23:58:12 | 48.71769 | 2.53454 | 138° | 99km/h | 11970m | 3.7m/s | -55.1°C | 0% | 0hPa | 5.5V | 00:00:00 | 00:00:00 | 00:00:00 | |
| DB0UT-7 | 2026-09-01 23:57:10 | 48.72882 | 2.51798 | 135° | 97km/h | 11700m | 3.7m/s | -56.0°C | 0% | 0hPa | 5.5V | 00:00:00 | 00:00:00 | 00:00:00 | |
| DB0UT-7 | 2026-09-01 23:56:41 | 48.73393 | 2.51013 | 134° | 93km/h | 11577m | 4.2m/s | -56.5°C | 0% | 0hPa | 5.5V | 00:00:00 | 00:00:00 | 00:00:00 | |
| DB0UT-7 | 2026-09-01 23:55:26 | 48.74649 | 2.49213 | 142° | 93km/h | 11271m | 5.1m/s | -55.7°C | 0% | 0hPa | 5.5V | 00:00:00 | 00:00:00 | 00:00:00 | |
| DB0UT-7 | 2026-09-01 23:54:56 | 48.75136 | 2.48440 | 134° | 84km/h | 11134m | 4.6m/s | -55.0°C | 0% | 0hPa | 5.5V | 00:00:00 | 00:00:00 | 00:00:00 | |
| DB0UT-7 | 2026-09-01 23:53:45 | 48.75937 | 2.46412 | 114° | 88km/h | 10747m | 4.4m/s | -52.1°C | 0% | 0hPa | 5.5V | 00:00:00 | 00:00:00 | 00:00:00 | |
| DB0UT-7 | 2026-09-01 23:53:15 | 48.76180 | 2.45481 | 113° | 80km/h | 10587m | 4.2m/s | -50.6°C | 0% | 0hPa | 5.5V | 00:00:00 | 00:00:00 | 00:00:00 | |
| DB0UT-7 | 2026-09-01 23:52:04 | 48.76600 | 2.43293 | 105° | 86km/h | 10251m | 2.4m/s | -47.7°C | 0% | 0hPa | 5.5V | 00:00:00 | 00:00:00 | 00:00:00 | |
| DB0UT-7 | 2026-09-01 23:51:34 | 48.76776 | 2.42341 | 98° | 82km/h | 10128m | 4.5m/s | -47.0°C | 0% | 0hPa | 5.5V | 00:00:00 | 00:00:00 | 00:00:00 | |
| DB0UT-7 | 2026-09-01 23:50:19 | 48.77275 | 2.40079 | 121° | 88km/h | 9784m | 4.0m/s | -43.9°C | 0% | 0hPa | 5.6V | 00:00:00 | 00:00:00 | 00:00:00 | |
| DB0UT-7 | 2026-09-01 23:49:49 | 48.77545 | 2.39162 | 113° | 78km/h | 9646m | 2.1m/s | -42.6°C | 0% | 0hPa | 5.6V | 00:00:00 | 00:00:00 | 00:00:00 | |
| DB0UT-7 | 2026-09-01 23:48:36 | 48.78147 | 2.37045 | 102° | 77km/h | 9324m | 3.7m/s | -39.9°C | 0% | 0hPa | 5.6V | 00:00:00 | 00:00:00 | 00:00:00 | |
| DB0UT-7 | 2026-09-01 23:48:06 | 48.78398 | 2.36256 | 118° | 80km/h | 9174m | 6.2m/s | -38.5°C | 0% | 0hPa | 5.6V | 00:00:00 | 00:00:00 | 00:00:00 | |
| DB0UT-7 | 2026-09-01 23:46:54 | 48.78867 | 2.34319 | 107° | 77km/h | 8809m | 3.6m/s | -35.4°C | 0% | 0hPa | 5.6V | 00:00:00 | 00:00:00 | 00:00:00 | |
| DB0UT-7 | 2026-09-01 23:46:24 | 48.78917 | 2.33439 | 105° | 75km/h | 8651m | 4.3m/s | -33.9°C | 0% | 0hPa | 5.6V | 00:00:00 | 00:00:00 | 00:00:00 | |
| DB0UT-7 | 2026-09-01 23:45:11 | 48.79198 | 2.31365 | 90° | 69km/h | 8265m | 3.7m/s | -30.9°C | 0% | 0hPa | 5.6V | 00:00:00 | 00:00:00 | 00:00:00 | |
| DB0UT-7 | 2026-09-01 23:44:41 | 48.79228 | 2.30577 | 89° | 62km/h | 8123m | 5.4m/s | -29.9°C | 0% | 0hPa | 5.6V | 00:00:00 | 00:00:00 | 00:00:00 | |
| DB0UT-7 | 2026-09-01 23:43:29 | 48.79057 | 2.28891 | 85° | 58km/h | 7833m | 3.5m/s | -27.6°C | 0% | 0hPa | 5.6V | 00:00:00 | 00:00:00 | 00:00:00 | |
| DB0UT-7 | 2026-09-01 23:42:59 | 48.78945 | 2.28238 | 79° | 55km/h | 7719m | 3.8m/s | -26.8°C | 0% | 0hPa | 5.6V | 00:00:00 | 00:00:00 | 00:00:00 | |
| DB0UT-7 | 2026-09-01 23:41:46 | 48.78770 | 2.26712 | 89° | 55km/h | 7426m | 4.0m/s | -25.8°C | 0% | 0hPa | 5.6V | 00:00:00 | 00:00:00 | 00:00:00 | |
| DB0UT-7 | 2026-09-01 23:41:16 | 48.78790 | 2.26078 | 88° | 58km/h | 7309m | 3.4m/s | -25.2°C | 0% | 0hPa | 5.6V | 00:00:00 | 00:00:00 | 00:00:00 | |
| DB0UT-7 | 2026-09-01 23:40:03 | 48.78825 | 2.24460 | 90° | 60km/h | 7018m | 4.3m/s | -22.6°C | 0% | 0hPa | 5.6V | 00:00:00 | 00:00:00 | 00:00:00 | |
| DB0UT-7 | 2026-09-01 23:39:33 | 48.78844 | 2.23771 | 91° | 58km/h | 6872m | 4.6m/s | -21.4°C | 0% | 0hPa | 5.6V | 00:00:00 | 00:00:00 | 00:00:00 | |
| DB0UT-7 | 2026-09-01 23:38:13 | 48.78887 | 2.21950 | 92° | 62km/h | 6535m | 5.1m/s | -18.7°C | 0% | 0hPa | 5.6V | 00:00:00 | 00:00:00 | 00:00:00 |